<?xml version="1.0" encoding="UTF-8" standalone="no" ?>
<gpx xmlns="http://www.topografix.com/GPX/1/1" xmlns:xsi="http://www.w3.org/2001/XMLSchema-instance" xsi:schemaLocation="http://www.topografix.com/GPX/1/1 http://www.topografix.com/GPX/1/1/gpx.xsd" version="1.1" creator="VisuGPX - https://www.visugpx.com">
  <metadata>
    <name>Circuit VTC au bord du Lac de Guerlédan</name>
    <desc><![CDATA[Circuit VTC empruntant petites routes, chemins empierrés et petites chasses pour gagner la voie verte V6 puis chemin de hallage jusqu'à Bon-Repos et retour à Mûr de Bretagne par V6]]></desc>
  </metadata>
  <trk>
    <name><![CDATA[circuit Guerlédan-]]></name>
    <desc><![CDATA[À partir de la Piste Active]]></desc>
    <trkseg>
    </trkseg>
    </trkseg>
    </trkseg>
    </trkseg>
    </trkseg>
    </trkseg>
    </trkseg>
    </trkseg>
    </trkseg>
    </trkseg>
    </trkseg>
    </trkseg>
    </trkseg>
    </trkseg>
    </trkseg>
      <trkpt lat="48.19811" lon="-2.98948">
        <ele>152.796875</ele>
        <time>2020-07-25T08:11:00.000Z</time>
      </trkpt>
      <trkpt lat="48.19818" lon="-2.98975">
        <ele>151.199219</ele>
        <time>2020-07-25T08:11:41.000Z</time>
      </trkpt>
      <trkpt lat="48.19825" lon="-2.98966">
        <ele>151</ele>
        <time>2020-07-25T08:11:48.000Z</time>
      </trkpt>
      <trkpt lat="48.19826" lon="-2.98949">
        <ele>150.597656</ele>
        <time>2020-07-25T08:11:52.000Z</time>
      </trkpt>
      <trkpt lat="48.19827" lon="-2.98935">
        <ele>150.097656</ele>
        <time>2020-07-25T08:11:55.000Z</time>
      </trkpt>
      <trkpt lat="48.19823" lon="-2.98922">
        <ele>150.097656</ele>
        <time>2020-07-25T08:11:59.000Z</time>
      </trkpt>
      <trkpt lat="48.19812" lon="-2.98929">
        <ele>150.097656</ele>
        <time>2020-07-25T08:12:03.000Z</time>
      </trkpt>
      <trkpt lat="48.19804" lon="-2.98936">
        <ele>149.699219</ele>
        <time>2020-07-25T08:12:06.000Z</time>
      </trkpt>
      <trkpt lat="48.19797" lon="-2.98945">
        <ele>149.398438</ele>
        <time>2020-07-25T08:12:09.000Z</time>
      </trkpt>
      <trkpt lat="48.19791" lon="-2.98961">
        <ele>149</ele>
        <time>2020-07-25T08:12:12.000Z</time>
      </trkpt>
      <trkpt lat="48.19788" lon="-2.98981">
        <ele>149.097656</ele>
        <time>2020-07-25T08:12:15.000Z</time>
      </trkpt>
      <trkpt lat="48.19783" lon="-2.99039">
        <ele>149</ele>
        <time>2020-07-25T08:12:23.000Z</time>
      </trkpt>
      <trkpt lat="48.1978" lon="-2.99107">
        <ele>148.898438</ele>
        <time>2020-07-25T08:12:36.000Z</time>
      </trkpt>
      <trkpt lat="48.1978" lon="-2.99107">
        <ele>148.898438</ele>
        <time>2020-07-25T08:12:36.000Z</time>
      </trkpt>
      <trkpt lat="48.19778" lon="-2.99156">
        <ele>150.597656</ele>
        <time>2020-07-25T08:12:45.000Z</time>
      </trkpt>
      <trkpt lat="48.19778" lon="-2.99172">
        <ele>150.898438</ele>
        <time>2020-07-25T08:12:48.000Z</time>
      </trkpt>
      <trkpt lat="48.19779" lon="-2.99217">
        <ele>150.597656</ele>
        <time>2020-07-25T08:12:57.000Z</time>
      </trkpt>
      <trkpt lat="48.19781" lon="-2.99231">
        <ele>150.097656</ele>
        <time>2020-07-25T08:13:00.000Z</time>
      </trkpt>
      <trkpt lat="48.19786" lon="-2.99243">
        <ele>150.199219</ele>
        <time>2020-07-25T08:13:04.000Z</time>
      </trkpt>
      <trkpt lat="48.19788" lon="-2.99257">
        <ele>149.398438</ele>
        <time>2020-07-25T08:13:08.000Z</time>
      </trkpt>
      <trkpt lat="48.19791" lon="-2.99273">
        <ele>148.296875</ele>
        <time>2020-07-25T08:13:13.000Z</time>
      </trkpt>
      <trkpt lat="48.19795" lon="-2.99287">
        <ele>146.5</ele>
        <time>2020-07-25T08:13:17.000Z</time>
      </trkpt>
      <trkpt lat="48.19795" lon="-2.99304">
        <ele>144.296875</ele>
        <time>2020-07-25T08:13:21.000Z</time>
      </trkpt>
      <trkpt lat="48.19801" lon="-2.99383">
        <ele>145.199219</ele>
        <time>2020-07-25T08:13:37.000Z</time>
      </trkpt>
      <trkpt lat="48.19804" lon="-2.99415">
        <ele>148</ele>
        <time>2020-07-25T08:13:43.000Z</time>
      </trkpt>
      <trkpt lat="48.19808" lon="-2.9943">
        <ele>148.199219</ele>
        <time>2020-07-25T08:13:46.000Z</time>
      </trkpt>
      <trkpt lat="48.19837" lon="-2.99557">
        <ele>153.699219</ele>
        <time>2020-07-25T08:14:13.000Z</time>
      </trkpt>
      <trkpt lat="48.19839" lon="-2.99574">
        <ele>154.796875</ele>
        <time>2020-07-25T08:14:16.000Z</time>
      </trkpt>
      <trkpt lat="48.19842" lon="-2.99591">
        <ele>155.398438</ele>
        <time>2020-07-25T08:14:20.000Z</time>
      </trkpt>
      <trkpt lat="48.19846" lon="-2.99605">
        <ele>157.296875</ele>
        <time>2020-07-25T08:14:24.000Z</time>
      </trkpt>
      <trkpt lat="48.19849" lon="-2.99621">
        <ele>156.597656</ele>
        <time>2020-07-25T08:14:28.000Z</time>
      </trkpt>
      <trkpt lat="48.19852" lon="-2.99634">
        <ele>156.398438</ele>
        <time>2020-07-25T08:14:31.000Z</time>
      </trkpt>
      <trkpt lat="48.19903" lon="-2.99826">
        <ele>157</ele>
        <time>2020-07-25T08:15:18.000Z</time>
      </trkpt>
      <trkpt lat="48.19913" lon="-2.99852">
        <ele>157</ele>
        <time>2020-07-25T08:15:24.000Z</time>
      </trkpt>
      <trkpt lat="48.19922" lon="-2.99876">
        <ele>156.296875</ele>
        <time>2020-07-25T08:15:30.000Z</time>
      </trkpt>
      <trkpt lat="48.19928" lon="-2.99888">
        <ele>156.296875</ele>
        <time>2020-07-25T08:15:33.000Z</time>
      </trkpt>
      <trkpt lat="48.19959" lon="-2.99949">
        <ele>156.898438</ele>
        <time>2020-07-25T08:15:48.000Z</time>
      </trkpt>
      <trkpt lat="48.19994" lon="-3.00006">
        <ele>160.796875</ele>
        <time>2020-07-25T08:16:03.000Z</time>
      </trkpt>
      <trkpt lat="48.20001" lon="-3.00015">
        <ele>160.597656</ele>
        <time>2020-07-25T08:16:06.000Z</time>
      </trkpt>
      <trkpt lat="48.20031" lon="-3.00054">
        <ele>159.5</ele>
        <time>2020-07-25T08:16:18.000Z</time>
      </trkpt>
      <trkpt lat="48.20041" lon="-3.00062">
        <ele>160.296875</ele>
        <time>2020-07-25T08:16:22.000Z</time>
      </trkpt>
      <trkpt lat="48.20099" lon="-3.00102">
        <ele>161</ele>
        <time>2020-07-25T08:16:40.000Z</time>
      </trkpt>
      <trkpt lat="48.20131" lon="-3.00117">
        <ele>159.5</ele>
        <time>2020-07-25T08:16:49.000Z</time>
      </trkpt>
      <trkpt lat="48.20141" lon="-3.00121">
        <ele>159.398438</ele>
        <time>2020-07-25T08:16:52.000Z</time>
      </trkpt>
      <trkpt lat="48.20162" lon="-3.00128">
        <ele>158.597656</ele>
        <time>2020-07-25T08:16:58.000Z</time>
      </trkpt>
      <trkpt lat="48.20184" lon="-3.00133">
        <ele>158.898438</ele>
        <time>2020-07-25T08:17:04.000Z</time>
      </trkpt>
      <trkpt lat="48.20207" lon="-3.00135">
        <ele>159.097656</ele>
        <time>2020-07-25T08:17:09.000Z</time>
      </trkpt>
      <trkpt lat="48.20259" lon="-3.00135">
        <ele>160.097656</ele>
        <time>2020-07-25T08:17:21.000Z</time>
      </trkpt>
      <trkpt lat="48.20285" lon="-3.00131">
        <ele>160.296875</ele>
        <time>2020-07-25T08:17:27.000Z</time>
      </trkpt>
      <trkpt lat="48.20313" lon="-3.00123">
        <ele>160.699219</ele>
        <time>2020-07-25T08:17:33.000Z</time>
      </trkpt>
      <trkpt lat="48.20349" lon="-3.00108">
        <ele>160.898438</ele>
        <time>2020-07-25T08:17:41.000Z</time>
      </trkpt>
      <trkpt lat="48.20397" lon="-3.00085">
        <ele>161</ele>
        <time>2020-07-25T08:17:54.000Z</time>
      </trkpt>
      <trkpt lat="48.20407" lon="-3.00086">
        <ele>160.898438</ele>
        <time>2020-07-25T08:18:04.000Z</time>
      </trkpt>
      <trkpt lat="48.20411" lon="-3.00099">
        <ele>160.398438</ele>
        <time>2020-07-25T08:18:08.000Z</time>
      </trkpt>
      <trkpt lat="48.20412" lon="-3.00113">
        <ele>159.699219</ele>
        <time>2020-07-25T08:18:11.000Z</time>
      </trkpt>
      <trkpt lat="48.20414" lon="-3.0013">
        <ele>159.097656</ele>
        <time>2020-07-25T08:18:14.000Z</time>
      </trkpt>
      <trkpt lat="48.20424" lon="-3.00186">
        <ele>158</ele>
        <time>2020-07-25T08:18:22.000Z</time>
      </trkpt>
      <trkpt lat="48.20424" lon="-3.00186">
        <ele>158</ele>
        <time>2020-07-25T08:18:22.000Z</time>
      </trkpt>
      <trkpt lat="48.20424" lon="-3.00186">
        <ele>158</ele>
        <time>2020-07-25T08:18:22.000Z</time>
      </trkpt>
      <trkpt lat="48.20424" lon="-3.00186">
        <ele>158</ele>
        <time>2020-07-25T08:18:22.000Z</time>
      </trkpt>
      <trkpt lat="48.20424" lon="-3.00186">
        <ele>158</ele>
        <time>2020-07-25T08:18:22.000Z</time>
      </trkpt>
      <trkpt lat="48.20428" lon="-3.002">
        <ele>158</ele>
        <time>2020-07-25T08:18:24.000Z</time>
      </trkpt>
      <trkpt lat="48.20433" lon="-3.00213">
        <ele>157.796875</ele>
        <time>2020-07-25T08:18:26.000Z</time>
      </trkpt>
      <trkpt lat="48.20443" lon="-3.00236">
        <ele>156.398438</ele>
        <time>2020-07-25T08:18:30.000Z</time>
      </trkpt>
      <trkpt lat="48.20449" lon="-3.00248">
        <ele>155.398438</ele>
        <time>2020-07-25T08:18:32.000Z</time>
      </trkpt>
      <trkpt lat="48.20456" lon="-3.00261">
        <ele>154.097656</ele>
        <time>2020-07-25T08:18:34.000Z</time>
      </trkpt>
      <trkpt lat="48.20465" lon="-3.00273">
        <ele>153.199219</ele>
        <time>2020-07-25T08:18:36.000Z</time>
      </trkpt>
      <trkpt lat="48.20476" lon="-3.00283">
        <ele>152.097656</ele>
        <time>2020-07-25T08:18:38.000Z</time>
      </trkpt>
      <trkpt lat="48.20499" lon="-3.00304">
        <ele>150.5</ele>
        <time>2020-07-25T08:18:42.000Z</time>
      </trkpt>
      <trkpt lat="48.20509" lon="-3.00317">
        <ele>149.699219</ele>
        <time>2020-07-25T08:18:44.000Z</time>
      </trkpt>
      <trkpt lat="48.20518" lon="-3.00331">
        <ele>149.296875</ele>
        <time>2020-07-25T08:18:46.000Z</time>
      </trkpt>
      <trkpt lat="48.20523" lon="-3.00344">
        <ele>150.199219</ele>
        <time>2020-07-25T08:18:48.000Z</time>
      </trkpt>
      <trkpt lat="48.20526" lon="-3.00358">
        <ele>151.398438</ele>
        <time>2020-07-25T08:18:50.000Z</time>
      </trkpt>
      <trkpt lat="48.20527" lon="-3.00372">
        <ele>152</ele>
        <time>2020-07-25T08:18:53.000Z</time>
      </trkpt>
      <trkpt lat="48.20529" lon="-3.00386">
        <ele>150.898438</ele>
        <time>2020-07-25T08:18:57.000Z</time>
      </trkpt>
      <trkpt lat="48.20525" lon="-3.00373">
        <ele>149.597656</ele>
        <time>2020-07-25T08:19:12.000Z</time>
      </trkpt>
      <trkpt lat="48.20528" lon="-3.0036">
        <ele>147.699219</ele>
        <time>2020-07-25T08:19:17.000Z</time>
      </trkpt>
      <trkpt lat="48.20538" lon="-3.00367">
        <ele>148</ele>
        <time>2020-07-25T08:19:22.000Z</time>
      </trkpt>
      <trkpt lat="48.20547" lon="-3.00378">
        <ele>148.296875</ele>
        <time>2020-07-25T08:19:26.000Z</time>
      </trkpt>
      <trkpt lat="48.20738" lon="-3.00611">
        <ele>148.296875</ele>
        <time>2020-07-25T08:20:22.000Z</time>
      </trkpt>
      <trkpt lat="48.20747" lon="-3.00624">
        <ele>148.597656</ele>
        <time>2020-07-25T08:20:25.000Z</time>
      </trkpt>
      <trkpt lat="48.20789" lon="-3.00695">
        <ele>149.5</ele>
        <time>2020-07-25T08:20:40.000Z</time>
      </trkpt>
      <trkpt lat="48.20811" lon="-3.00721">
        <ele>149</ele>
        <time>2020-07-25T08:20:46.000Z</time>
      </trkpt>
      <trkpt lat="48.20881" lon="-3.00797">
        <ele>142.699219</ele>
        <time>2020-07-25T08:21:02.000Z</time>
      </trkpt>
      <trkpt lat="48.20891" lon="-3.00812">
        <ele>141.199219</ele>
        <time>2020-07-25T08:21:04.000Z</time>
      </trkpt>
      <trkpt lat="48.209" lon="-3.00831">
        <ele>139.597656</ele>
        <time>2020-07-25T08:21:06.000Z</time>
      </trkpt>
      <trkpt lat="48.20961" lon="-3.00953">
        <ele>130.796875</ele>
        <time>2020-07-25T08:21:18.000Z</time>
      </trkpt>
      <trkpt lat="48.20966" lon="-3.00971">
        <ele>129.597656</ele>
        <time>2020-07-25T08:21:20.000Z</time>
      </trkpt>
      <trkpt lat="48.2097" lon="-3.00987">
        <ele>128.898438</ele>
        <time>2020-07-25T08:21:22.000Z</time>
      </trkpt>
      <trkpt lat="48.20972" lon="-3.01002">
        <ele>128.097656</ele>
        <time>2020-07-25T08:21:24.000Z</time>
      </trkpt>
      <trkpt lat="48.20977" lon="-3.01013">
        <ele>126.796875</ele>
        <time>2020-07-25T08:21:27.000Z</time>
      </trkpt>
      <trkpt lat="48.20986" lon="-3.01018">
        <ele>126.097656</ele>
        <time>2020-07-25T08:21:35.000Z</time>
      </trkpt>
      <trkpt lat="48.20996" lon="-3.01017">
        <ele>125.5</ele>
        <time>2020-07-25T08:21:40.000Z</time>
      </trkpt>
      <trkpt lat="48.21004" lon="-3.01024">
        <ele>125.597656</ele>
        <time>2020-07-25T08:21:43.000Z</time>
      </trkpt>
      <trkpt lat="48.2101" lon="-3.01035">
        <ele>125.796875</ele>
        <time>2020-07-25T08:21:46.000Z</time>
      </trkpt>
      <trkpt lat="48.21034" lon="-3.0107">
        <ele>126.199219</ele>
        <time>2020-07-25T08:21:56.000Z</time>
      </trkpt>
      <trkpt lat="48.21044" lon="-3.0108">
        <ele>126.296875</ele>
        <time>2020-07-25T08:21:59.000Z</time>
      </trkpt>
      <trkpt lat="48.21104" lon="-3.01136">
        <ele>126</ele>
        <time>2020-07-25T08:22:15.000Z</time>
      </trkpt>
      <trkpt lat="48.21124" lon="-3.01151">
        <ele>126.097656</ele>
        <time>2020-07-25T08:22:20.000Z</time>
      </trkpt>
      <trkpt lat="48.21135" lon="-3.01158">
        <ele>126.398438</ele>
        <time>2020-07-25T08:22:23.000Z</time>
      </trkpt>
      <trkpt lat="48.21147" lon="-3.01163">
        <ele>126.699219</ele>
        <time>2020-07-25T08:22:26.000Z</time>
      </trkpt>
      <trkpt lat="48.2116" lon="-3.01167">
        <ele>126.898438</ele>
        <time>2020-07-25T08:22:29.000Z</time>
      </trkpt>
      <trkpt lat="48.21169" lon="-3.01168">
        <ele>126.796875</ele>
        <time>2020-07-25T08:22:31.000Z</time>
      </trkpt>
      <trkpt lat="48.21218" lon="-3.01171">
        <ele>127.796875</ele>
        <time>2020-07-25T08:22:43.000Z</time>
      </trkpt>
      <trkpt lat="48.21261" lon="-3.01173">
        <ele>132.898438</ele>
        <time>2020-07-25T08:22:56.000Z</time>
      </trkpt>
      <trkpt lat="48.2127" lon="-3.01178">
        <ele>132.796875</ele>
        <time>2020-07-25T08:23:00.000Z</time>
      </trkpt>
      <trkpt lat="48.21275" lon="-3.01191">
        <ele>132.5</ele>
        <time>2020-07-25T08:23:04.000Z</time>
      </trkpt>
      <trkpt lat="48.21278" lon="-3.01205">
        <ele>132.898438</ele>
        <time>2020-07-25T08:23:08.000Z</time>
      </trkpt>
      <trkpt lat="48.21284" lon="-3.01237">
        <ele>134.796875</ele>
        <time>2020-07-25T08:23:16.000Z</time>
      </trkpt>
      <trkpt lat="48.21287" lon="-3.01252">
        <ele>136.097656</ele>
        <time>2020-07-25T08:23:20.000Z</time>
      </trkpt>
      <trkpt lat="48.21292" lon="-3.01266">
        <ele>136.898438</ele>
        <time>2020-07-25T08:23:24.000Z</time>
      </trkpt>
      <trkpt lat="48.21308" lon="-3.01312">
        <ele>138.597656</ele>
        <time>2020-07-25T08:23:36.000Z</time>
      </trkpt>
      <trkpt lat="48.21312" lon="-3.01325">
        <ele>139</ele>
        <time>2020-07-25T08:23:39.000Z</time>
      </trkpt>
      <trkpt lat="48.21314" lon="-3.01338">
        <ele>139.199219</ele>
        <time>2020-07-25T08:23:42.000Z</time>
      </trkpt>
      <trkpt lat="48.21323" lon="-3.01396">
        <ele>139.699219</ele>
        <time>2020-07-25T08:23:54.000Z</time>
      </trkpt>
      <trkpt lat="48.21327" lon="-3.0141">
        <ele>139.699219</ele>
        <time>2020-07-25T08:23:57.000Z</time>
      </trkpt>
      <trkpt lat="48.21335" lon="-3.01438">
        <ele>139.699219</ele>
        <time>2020-07-25T08:24:03.000Z</time>
      </trkpt>
      <trkpt lat="48.21349" lon="-3.01478">
        <ele>140.5</ele>
        <time>2020-07-25T08:24:12.000Z</time>
      </trkpt>
      <trkpt lat="48.21354" lon="-3.0149">
        <ele>140.097656</ele>
        <time>2020-07-25T08:24:15.000Z</time>
      </trkpt>
      <trkpt lat="48.21359" lon="-3.01503">
        <ele>139.597656</ele>
        <time>2020-07-25T08:24:18.000Z</time>
      </trkpt>
      <trkpt lat="48.21363" lon="-3.01519">
        <ele>138.699219</ele>
        <time>2020-07-25T08:24:21.000Z</time>
      </trkpt>
      <trkpt lat="48.21365" lon="-3.01537">
        <ele>138</ele>
        <time>2020-07-25T08:24:24.000Z</time>
      </trkpt>
      <trkpt lat="48.21366" lon="-3.01556">
        <ele>137.296875</ele>
        <time>2020-07-25T08:24:27.000Z</time>
      </trkpt>
      <trkpt lat="48.21365" lon="-3.01615">
        <ele>136.296875</ele>
        <time>2020-07-25T08:24:36.000Z</time>
      </trkpt>
      <trkpt lat="48.21364" lon="-3.01635">
        <ele>136.097656</ele>
        <time>2020-07-25T08:24:39.000Z</time>
      </trkpt>
      <trkpt lat="48.21363" lon="-3.01649">
        <ele>135.597656</ele>
        <time>2020-07-25T08:24:41.000Z</time>
      </trkpt>
      <trkpt lat="48.21359" lon="-3.01662">
        <ele>135.199219</ele>
        <time>2020-07-25T08:24:43.000Z</time>
      </trkpt>
      <trkpt lat="48.21355" lon="-3.01675">
        <ele>134.699219</ele>
        <time>2020-07-25T08:24:45.000Z</time>
      </trkpt>
      <trkpt lat="48.21349" lon="-3.01686">
        <ele>134</ele>
        <time>2020-07-25T08:24:47.000Z</time>
      </trkpt>
      <trkpt lat="48.21338" lon="-3.01712">
        <ele>132.597656</ele>
        <time>2020-07-25T08:24:51.000Z</time>
      </trkpt>
      <trkpt lat="48.21332" lon="-3.01727">
        <ele>132.199219</ele>
        <time>2020-07-25T08:24:53.000Z</time>
      </trkpt>
      <trkpt lat="48.21327" lon="-3.01744">
        <ele>131.796875</ele>
        <time>2020-07-25T08:24:55.000Z</time>
      </trkpt>
      <trkpt lat="48.21312" lon="-3.01796">
        <ele>130.597656</ele>
        <time>2020-07-25T08:25:01.000Z</time>
      </trkpt>
      <trkpt lat="48.2131" lon="-3.01816">
        <ele>130.296875</ele>
        <time>2020-07-25T08:25:03.000Z</time>
      </trkpt>
      <trkpt lat="48.21313" lon="-3.01835">
        <ele>130.296875</ele>
        <time>2020-07-25T08:25:05.000Z</time>
      </trkpt>
      <trkpt lat="48.21319" lon="-3.01852">
        <ele>130.5</ele>
        <time>2020-07-25T08:25:07.000Z</time>
      </trkpt>
      <trkpt lat="48.21327" lon="-3.01865">
        <ele>130.699219</ele>
        <time>2020-07-25T08:25:09.000Z</time>
      </trkpt>
      <trkpt lat="48.21347" lon="-3.01898">
        <ele>131.199219</ele>
        <time>2020-07-25T08:25:15.000Z</time>
      </trkpt>
      <trkpt lat="48.21372" lon="-3.01938">
        <ele>131</ele>
        <time>2020-07-25T08:25:24.000Z</time>
      </trkpt>
      <trkpt lat="48.21379" lon="-3.01952">
        <ele>131.296875</ele>
        <time>2020-07-25T08:25:27.000Z</time>
      </trkpt>
      <trkpt lat="48.21398" lon="-3.01996">
        <ele>132.097656</ele>
        <time>2020-07-25T08:25:36.000Z</time>
      </trkpt>
      <trkpt lat="48.21431" lon="-3.02078">
        <ele>134.699219</ele>
        <time>2020-07-25T08:25:54.000Z</time>
      </trkpt>
      <trkpt lat="48.21435" lon="-3.02092">
        <ele>134.097656</ele>
        <time>2020-07-25T08:25:57.000Z</time>
      </trkpt>
      <trkpt lat="48.21439" lon="-3.02105">
        <ele>133.796875</ele>
        <time>2020-07-25T08:26:00.000Z</time>
      </trkpt>
      <trkpt lat="48.21442" lon="-3.02122">
        <ele>134.398438</ele>
        <time>2020-07-25T08:26:03.000Z</time>
      </trkpt>
      <trkpt lat="48.21444" lon="-3.02141">
        <ele>134.5</ele>
        <time>2020-07-25T08:26:06.000Z</time>
      </trkpt>
      <trkpt lat="48.21453" lon="-3.02217">
        <ele>134.699219</ele>
        <time>2020-07-25T08:26:16.000Z</time>
      </trkpt>
      <trkpt lat="48.21455" lon="-3.02234">
        <ele>135</ele>
        <time>2020-07-25T08:26:18.000Z</time>
      </trkpt>
      <trkpt lat="48.21456" lon="-3.02267">
        <ele>135.199219</ele>
        <time>2020-07-25T08:26:22.000Z</time>
      </trkpt>
      <trkpt lat="48.21456" lon="-3.02281">
        <ele>135.398438</ele>
        <time>2020-07-25T08:26:24.000Z</time>
      </trkpt>
      <trkpt lat="48.21454" lon="-3.02309">
        <ele>136.898438</ele>
        <time>2020-07-25T08:26:28.000Z</time>
      </trkpt>
      <trkpt lat="48.21451" lon="-3.02328">
        <ele>138</ele>
        <time>2020-07-25T08:26:31.000Z</time>
      </trkpt>
      <trkpt lat="48.21448" lon="-3.02347">
        <ele>139.097656</ele>
        <time>2020-07-25T08:26:34.000Z</time>
      </trkpt>
      <trkpt lat="48.21447" lon="-3.02365">
        <ele>139.796875</ele>
        <time>2020-07-25T08:26:37.000Z</time>
      </trkpt>
      <trkpt lat="48.21444" lon="-3.02399">
        <ele>140.199219</ele>
        <time>2020-07-25T08:26:43.000Z</time>
      </trkpt>
      <trkpt lat="48.21444" lon="-3.02413">
        <ele>139.597656</ele>
        <time>2020-07-25T08:26:46.000Z</time>
      </trkpt>
      <trkpt lat="48.21446" lon="-3.02471">
        <ele>141.796875</ele>
        <time>2020-07-25T08:26:58.000Z</time>
      </trkpt>
      <trkpt lat="48.21448" lon="-3.02486">
        <ele>142.699219</ele>
        <time>2020-07-25T08:27:01.000Z</time>
      </trkpt>
      <trkpt lat="48.21451" lon="-3.02499">
        <ele>143.398438</ele>
        <time>2020-07-25T08:27:04.000Z</time>
      </trkpt>
      <trkpt lat="48.21455" lon="-3.02512">
        <ele>144</ele>
        <time>2020-07-25T08:27:07.000Z</time>
      </trkpt>
      <trkpt lat="48.2146" lon="-3.02526">
        <ele>144</ele>
        <time>2020-07-25T08:27:11.000Z</time>
      </trkpt>
      <trkpt lat="48.21457" lon="-3.02541">
        <ele>143.398438</ele>
        <time>2020-07-25T08:27:16.000Z</time>
      </trkpt>
      <trkpt lat="48.21453" lon="-3.02554">
        <ele>142.5</ele>
        <time>2020-07-25T08:27:20.000Z</time>
      </trkpt>
      <trkpt lat="48.21433" lon="-3.02612">
        <ele>140.5</ele>
        <time>2020-07-25T08:27:33.000Z</time>
      </trkpt>
      <trkpt lat="48.21417" lon="-3.02656">
        <ele>139.597656</ele>
        <time>2020-07-25T08:27:42.000Z</time>
      </trkpt>
      <trkpt lat="48.21411" lon="-3.02669">
        <ele>139.796875</ele>
        <time>2020-07-25T08:27:45.000Z</time>
      </trkpt>
      <trkpt lat="48.21405" lon="-3.02684">
        <ele>140</ele>
        <time>2020-07-25T08:27:48.000Z</time>
      </trkpt>
      <trkpt lat="48.21374" lon="-3.0277">
        <ele>140.597656</ele>
        <time>2020-07-25T08:28:10.000Z</time>
      </trkpt>
      <trkpt lat="48.21367" lon="-3.02801">
        <ele>140.5</ele>
        <time>2020-07-25T08:28:18.000Z</time>
      </trkpt>
      <trkpt lat="48.21367" lon="-3.02815">
        <ele>141.296875</ele>
        <time>2020-07-25T08:28:24.000Z</time>
      </trkpt>
      <trkpt lat="48.21368" lon="-3.0283">
        <ele>140.796875</ele>
        <time>2020-07-25T08:28:29.000Z</time>
      </trkpt>
      <trkpt lat="48.21367" lon="-3.02845">
        <ele>139.296875</ele>
        <time>2020-07-25T08:28:34.000Z</time>
      </trkpt>
      <trkpt lat="48.21364" lon="-3.02873">
        <ele>132.398438</ele>
        <time>2020-07-25T08:28:45.000Z</time>
      </trkpt>
      <trkpt lat="48.21362" lon="-3.02886">
        <ele>129.398438</ele>
        <time>2020-07-25T08:28:50.000Z</time>
      </trkpt>
      <trkpt lat="48.21359" lon="-3.02901">
        <ele>128.796875</ele>
        <time>2020-07-25T08:28:56.000Z</time>
      </trkpt>
      <trkpt lat="48.21352" lon="-3.02929">
        <ele>130.199219</ele>
        <time>2020-07-25T08:29:08.000Z</time>
      </trkpt>
      <trkpt lat="48.21347" lon="-3.02941">
        <ele>131.296875</ele>
        <time>2020-07-25T08:29:12.000Z</time>
      </trkpt>
      <trkpt lat="48.21342" lon="-3.02954">
        <ele>132.597656</ele>
        <time>2020-07-25T08:29:16.000Z</time>
      </trkpt>
      <trkpt lat="48.2133" lon="-3.02977">
        <ele>134.796875</ele>
        <time>2020-07-25T08:29:24.000Z</time>
      </trkpt>
      <trkpt lat="48.21322" lon="-3.02988">
        <ele>136.398438</ele>
        <time>2020-07-25T08:29:28.000Z</time>
      </trkpt>
      <trkpt lat="48.21314" lon="-3.02999">
        <ele>136.199219</ele>
        <time>2020-07-25T08:29:32.000Z</time>
      </trkpt>
      <trkpt lat="48.21308" lon="-3.0301">
        <ele>135.699219</ele>
        <time>2020-07-25T08:29:36.000Z</time>
      </trkpt>
      <trkpt lat="48.21301" lon="-3.03018">
        <ele>136.597656</ele>
        <time>2020-07-25T08:29:40.000Z</time>
      </trkpt>
      <trkpt lat="48.21293" lon="-3.03029">
        <ele>138.597656</ele>
        <time>2020-07-25T08:29:45.000Z</time>
      </trkpt>
      <trkpt lat="48.21287" lon="-3.03043">
        <ele>140.5</ele>
        <time>2020-07-25T08:29:50.000Z</time>
      </trkpt>
      <trkpt lat="48.21283" lon="-3.03056">
        <ele>139.5</ele>
        <time>2020-07-25T08:29:57.000Z</time>
      </trkpt>
      <trkpt lat="48.21279" lon="-3.03068">
        <ele>138.199219</ele>
        <time>2020-07-25T08:30:03.000Z</time>
      </trkpt>
      <trkpt lat="48.21272" lon="-3.03097">
        <ele>137.5</ele>
        <time>2020-07-25T08:30:17.000Z</time>
      </trkpt>
      <trkpt lat="48.21269" lon="-3.0311">
        <ele>136.699219</ele>
        <time>2020-07-25T08:30:22.000Z</time>
      </trkpt>
      <trkpt lat="48.21262" lon="-3.03138">
        <ele>139.898438</ele>
        <time>2020-07-25T08:30:34.000Z</time>
      </trkpt>
      <trkpt lat="48.21257" lon="-3.03151">
        <ele>141.597656</ele>
        <time>2020-07-25T08:30:46.000Z</time>
      </trkpt>
      <trkpt lat="48.21224" lon="-3.03241">
        <ele>150.597656</ele>
        <time>2020-07-25T08:31:30.000Z</time>
      </trkpt>
      <trkpt lat="48.2122" lon="-3.03254">
        <ele>150.597656</ele>
        <time>2020-07-25T08:31:36.000Z</time>
      </trkpt>
      <trkpt lat="48.21217" lon="-3.03269">
        <ele>152.699219</ele>
        <time>2020-07-25T08:31:42.000Z</time>
      </trkpt>
      <trkpt lat="48.21216" lon="-3.03283">
        <ele>161.597656</ele>
        <time>2020-07-25T08:31:51.000Z</time>
      </trkpt>
      <trkpt lat="48.21206" lon="-3.03289">
        <ele>161.398438</ele>
        <time>2020-07-25T08:35:32.000Z</time>
      </trkpt>
      <trkpt lat="48.21196" lon="-3.03287">
        <ele>161.398438</ele>
        <time>2020-07-25T08:35:37.000Z</time>
      </trkpt>
      <trkpt lat="48.21187" lon="-3.03284">
        <ele>161.398438</ele>
        <time>2020-07-25T08:35:41.000Z</time>
      </trkpt>
      <trkpt lat="48.21176" lon="-3.03278">
        <ele>161.199219</ele>
        <time>2020-07-25T08:35:45.000Z</time>
      </trkpt>
      <trkpt lat="48.21167" lon="-3.03271">
        <ele>161.097656</ele>
        <time>2020-07-25T08:35:48.000Z</time>
      </trkpt>
      <trkpt lat="48.21075" lon="-3.03199">
        <ele>160.5</ele>
        <time>2020-07-25T08:36:16.000Z</time>
      </trkpt>
      <trkpt lat="48.21065" lon="-3.03188">
        <ele>161.398438</ele>
        <time>2020-07-25T08:36:20.000Z</time>
      </trkpt>
      <trkpt lat="48.21058" lon="-3.03173">
        <ele>161.898438</ele>
        <time>2020-07-25T08:36:24.000Z</time>
      </trkpt>
      <trkpt lat="48.21055" lon="-3.0316">
        <ele>162.5</ele>
        <time>2020-07-25T08:36:27.000Z</time>
      </trkpt>
      <trkpt lat="48.21053" lon="-3.03146">
        <ele>163.199219</ele>
        <time>2020-07-25T08:36:30.000Z</time>
      </trkpt>
      <trkpt lat="48.21049" lon="-3.03133">
        <ele>163.898438</ele>
        <time>2020-07-25T08:36:33.000Z</time>
      </trkpt>
      <trkpt lat="48.21043" lon="-3.03122">
        <ele>164.296875</ele>
        <time>2020-07-25T08:36:36.000Z</time>
      </trkpt>
      <trkpt lat="48.21036" lon="-3.03113">
        <ele>164.5</ele>
        <time>2020-07-25T08:36:39.000Z</time>
      </trkpt>
      <trkpt lat="48.21028" lon="-3.03104">
        <ele>164.5</ele>
        <time>2020-07-25T08:36:42.000Z</time>
      </trkpt>
      <trkpt lat="48.20995" lon="-3.03076">
        <ele>165</ele>
        <time>2020-07-25T08:36:54.000Z</time>
      </trkpt>
      <trkpt lat="48.20979" lon="-3.03063">
        <ele>166.097656</ele>
        <time>2020-07-25T08:37:00.000Z</time>
      </trkpt>
      <trkpt lat="48.20968" lon="-3.03057">
        <ele>166.699219</ele>
        <time>2020-07-25T08:37:04.000Z</time>
      </trkpt>
      <trkpt lat="48.20946" lon="-3.03046">
        <ele>167.898438</ele>
        <time>2020-07-25T08:37:12.000Z</time>
      </trkpt>
      <trkpt lat="48.20935" lon="-3.03042">
        <ele>168.699219</ele>
        <time>2020-07-25T08:37:16.000Z</time>
      </trkpt>
      <trkpt lat="48.20904" lon="-3.03033">
        <ele>170</ele>
        <time>2020-07-25T08:37:27.000Z</time>
      </trkpt>
      <trkpt lat="48.20894" lon="-3.03031">
        <ele>170.796875</ele>
        <time>2020-07-25T08:37:30.000Z</time>
      </trkpt>
      <trkpt lat="48.20883" lon="-3.03033">
        <ele>171.5</ele>
        <time>2020-07-25T08:37:34.000Z</time>
      </trkpt>
      <trkpt lat="48.20871" lon="-3.03037">
        <ele>172</ele>
        <time>2020-07-25T08:37:38.000Z</time>
      </trkpt>
      <trkpt lat="48.20821" lon="-3.0305">
        <ele>176.199219</ele>
        <time>2020-07-25T08:37:55.000Z</time>
      </trkpt>
      <trkpt lat="48.20811" lon="-3.03056">
        <ele>177</ele>
        <time>2020-07-25T08:38:00.000Z</time>
      </trkpt>
      <trkpt lat="48.20809" lon="-3.03072">
        <ele>177</ele>
        <time>2020-07-25T08:38:05.000Z</time>
      </trkpt>
      <trkpt lat="48.20811" lon="-3.03085">
        <ele>177.296875</ele>
        <time>2020-07-25T08:38:09.000Z</time>
      </trkpt>
      <trkpt lat="48.20815" lon="-3.03114">
        <ele>177.5</ele>
        <time>2020-07-25T08:38:17.000Z</time>
      </trkpt>
      <trkpt lat="48.20819" lon="-3.0313">
        <ele>177.296875</ele>
        <time>2020-07-25T08:38:21.000Z</time>
      </trkpt>
      <trkpt lat="48.20832" lon="-3.03192">
        <ele>175.097656</ele>
        <time>2020-07-25T08:38:34.000Z</time>
      </trkpt>
      <trkpt lat="48.20834" lon="-3.0321">
        <ele>174.296875</ele>
        <time>2020-07-25T08:38:37.000Z</time>
      </trkpt>
      <trkpt lat="48.20834" lon="-3.03229">
        <ele>173.597656</ele>
        <time>2020-07-25T08:38:40.000Z</time>
      </trkpt>
      <trkpt lat="48.20833" lon="-3.03248">
        <ele>172.898438</ele>
        <time>2020-07-25T08:38:43.000Z</time>
      </trkpt>
      <trkpt lat="48.2083" lon="-3.03283">
        <ele>171.699219</ele>
        <time>2020-07-25T08:38:49.000Z</time>
      </trkpt>
      <trkpt lat="48.20831" lon="-3.033">
        <ele>170.296875</ele>
        <time>2020-07-25T08:38:53.000Z</time>
      </trkpt>
      <trkpt lat="48.20834" lon="-3.03316">
        <ele>168.699219</ele>
        <time>2020-07-25T08:38:57.000Z</time>
      </trkpt>
      <trkpt lat="48.20838" lon="-3.03329">
        <ele>166.597656</ele>
        <time>2020-07-25T08:39:00.000Z</time>
      </trkpt>
      <trkpt lat="48.20845" lon="-3.03346">
        <ele>165</ele>
        <time>2020-07-25T08:39:03.000Z</time>
      </trkpt>
      <trkpt lat="48.2085" lon="-3.03358">
        <ele>163.398438</ele>
        <time>2020-07-25T08:39:05.000Z</time>
      </trkpt>
      <trkpt lat="48.20854" lon="-3.03373">
        <ele>162.097656</ele>
        <time>2020-07-25T08:39:07.000Z</time>
      </trkpt>
      <trkpt lat="48.20855" lon="-3.03387">
        <ele>160</ele>
        <time>2020-07-25T08:39:09.000Z</time>
      </trkpt>
      <trkpt lat="48.20854" lon="-3.03407">
        <ele>157.898438</ele>
        <time>2020-07-25T08:39:12.000Z</time>
      </trkpt>
      <trkpt lat="48.20852" lon="-3.03423">
        <ele>156.398438</ele>
        <time>2020-07-25T08:39:15.000Z</time>
      </trkpt>
      <trkpt lat="48.20852" lon="-3.03437">
        <ele>155.699219</ele>
        <time>2020-07-25T08:39:18.000Z</time>
      </trkpt>
      <trkpt lat="48.20861" lon="-3.03448">
        <ele>155.296875</ele>
        <time>2020-07-25T08:39:22.000Z</time>
      </trkpt>
      <trkpt lat="48.20871" lon="-3.03455">
        <ele>155.097656</ele>
        <time>2020-07-25T08:39:25.000Z</time>
      </trkpt>
      <trkpt lat="48.20941" lon="-3.03501">
        <ele>152.398438</ele>
        <time>2020-07-25T08:39:39.000Z</time>
      </trkpt>
      <trkpt lat="48.20969" lon="-3.03516">
        <ele>149.898438</ele>
        <time>2020-07-25T08:39:43.000Z</time>
      </trkpt>
      <trkpt lat="48.21094" lon="-3.03568">
        <ele>146.699219</ele>
        <time>2020-07-25T08:40:00.000Z</time>
      </trkpt>
      <trkpt lat="48.21107" lon="-3.03572">
        <ele>146.5</ele>
        <time>2020-07-25T08:40:03.000Z</time>
      </trkpt>
      <trkpt lat="48.21115" lon="-3.03582">
        <ele>145.699219</ele>
        <time>2020-07-25T08:40:06.000Z</time>
      </trkpt>
      <trkpt lat="48.21116" lon="-3.03601">
        <ele>145.199219</ele>
        <time>2020-07-25T08:40:09.000Z</time>
      </trkpt>
      <trkpt lat="48.21116" lon="-3.03617">
        <ele>144.597656</ele>
        <time>2020-07-25T08:40:11.000Z</time>
      </trkpt>
      <trkpt lat="48.21116" lon="-3.03707">
        <ele>142.597656</ele>
        <time>2020-07-25T08:40:21.000Z</time>
      </trkpt>
      <trkpt lat="48.21119" lon="-3.03746">
        <ele>142.097656</ele>
        <time>2020-07-25T08:40:25.000Z</time>
      </trkpt>
      <trkpt lat="48.21121" lon="-3.03765">
        <ele>141.898438</ele>
        <time>2020-07-25T08:40:27.000Z</time>
      </trkpt>
      <trkpt lat="48.21124" lon="-3.03784">
        <ele>141.597656</ele>
        <time>2020-07-25T08:40:29.000Z</time>
      </trkpt>
      <trkpt lat="48.21127" lon="-3.03802">
        <ele>141.296875</ele>
        <time>2020-07-25T08:40:31.000Z</time>
      </trkpt>
      <trkpt lat="48.21133" lon="-3.03819">
        <ele>140.796875</ele>
        <time>2020-07-25T08:40:33.000Z</time>
      </trkpt>
      <trkpt lat="48.2114" lon="-3.03835">
        <ele>139.898438</ele>
        <time>2020-07-25T08:40:35.000Z</time>
      </trkpt>
      <trkpt lat="48.21183" lon="-3.03946">
        <ele>139</ele>
        <time>2020-07-25T08:40:51.000Z</time>
      </trkpt>
      <trkpt lat="48.21211" lon="-3.04044">
        <ele>141</ele>
        <time>2020-07-25T08:41:09.000Z</time>
      </trkpt>
      <trkpt lat="48.21216" lon="-3.04056">
        <ele>141.5</ele>
        <time>2020-07-25T08:41:12.000Z</time>
      </trkpt>
      <trkpt lat="48.21223" lon="-3.0407">
        <ele>141.199219</ele>
        <time>2020-07-25T08:41:16.000Z</time>
      </trkpt>
      <trkpt lat="48.21246" lon="-3.04116">
        <ele>143.597656</ele>
        <time>2020-07-25T08:41:33.000Z</time>
      </trkpt>
      <trkpt lat="48.21258" lon="-3.04143">
        <ele>143.796875</ele>
        <time>2020-07-25T08:41:43.000Z</time>
      </trkpt>
      <trkpt lat="48.21262" lon="-3.04158">
        <ele>144.796875</ele>
        <time>2020-07-25T08:41:48.000Z</time>
      </trkpt>
      <trkpt lat="48.21284" lon="-3.04223">
        <ele>151.5</ele>
        <time>2020-07-25T08:42:09.000Z</time>
      </trkpt>
      <trkpt lat="48.21288" lon="-3.04237">
        <ele>153.296875</ele>
        <time>2020-07-25T08:42:13.000Z</time>
      </trkpt>
      <trkpt lat="48.21291" lon="-3.04251">
        <ele>154.296875</ele>
        <time>2020-07-25T08:42:17.000Z</time>
      </trkpt>
      <trkpt lat="48.21296" lon="-3.0428">
        <ele>157</ele>
        <time>2020-07-25T08:42:25.000Z</time>
      </trkpt>
      <trkpt lat="48.21297" lon="-3.04294">
        <ele>158.398438</ele>
        <time>2020-07-25T08:42:29.000Z</time>
      </trkpt>
      <trkpt lat="48.21298" lon="-3.04309">
        <ele>159.597656</ele>
        <time>2020-07-25T08:42:33.000Z</time>
      </trkpt>
      <trkpt lat="48.21298" lon="-3.04324">
        <ele>160.898438</ele>
        <time>2020-07-25T08:42:37.000Z</time>
      </trkpt>
      <trkpt lat="48.21298" lon="-3.04357">
        <ele>163.097656</ele>
        <time>2020-07-25T08:42:45.000Z</time>
      </trkpt>
      <trkpt lat="48.21297" lon="-3.04373">
        <ele>163.898438</ele>
        <time>2020-07-25T08:42:49.000Z</time>
      </trkpt>
      <trkpt lat="48.21295" lon="-3.04388">
        <ele>164.699219</ele>
        <time>2020-07-25T08:42:53.000Z</time>
      </trkpt>
      <trkpt lat="48.21294" lon="-3.04405">
        <ele>165.296875</ele>
        <time>2020-07-25T08:42:57.000Z</time>
      </trkpt>
      <trkpt lat="48.21294" lon="-3.04419">
        <ele>165.898438</ele>
        <time>2020-07-25T08:43:00.000Z</time>
      </trkpt>
      <trkpt lat="48.21295" lon="-3.04434">
        <ele>166.5</ele>
        <time>2020-07-25T08:43:03.000Z</time>
      </trkpt>
      <trkpt lat="48.21297" lon="-3.04448">
        <ele>166.796875</ele>
        <time>2020-07-25T08:43:06.000Z</time>
      </trkpt>
      <trkpt lat="48.21301" lon="-3.04462">
        <ele>167.296875</ele>
        <time>2020-07-25T08:43:09.000Z</time>
      </trkpt>
      <trkpt lat="48.21306" lon="-3.04474">
        <ele>167.796875</ele>
        <time>2020-07-25T08:43:14.000Z</time>
      </trkpt>
      <trkpt lat="48.21311" lon="-3.04489">
        <ele>167.699219</ele>
        <time>2020-07-25T08:43:29.000Z</time>
      </trkpt>
      <trkpt lat="48.21312" lon="-3.04503">
        <ele>167.296875</ele>
        <time>2020-07-25T08:43:32.000Z</time>
      </trkpt>
      <trkpt lat="48.21313" lon="-3.04519">
        <ele>166.398438</ele>
        <time>2020-07-25T08:43:35.000Z</time>
      </trkpt>
      <trkpt lat="48.21316" lon="-3.04536">
        <ele>165.699219</ele>
        <time>2020-07-25T08:43:38.000Z</time>
      </trkpt>
      <trkpt lat="48.21326" lon="-3.04599">
        <ele>163.097656</ele>
        <time>2020-07-25T08:43:47.000Z</time>
      </trkpt>
      <trkpt lat="48.21327" lon="-3.04615">
        <ele>162.5</ele>
        <time>2020-07-25T08:43:49.000Z</time>
      </trkpt>
      <trkpt lat="48.21327" lon="-3.04633">
        <ele>161.699219</ele>
        <time>2020-07-25T08:43:51.000Z</time>
      </trkpt>
      <trkpt lat="48.21328" lon="-3.0493">
        <ele>153.199219</ele>
        <time>2020-07-25T08:44:17.000Z</time>
      </trkpt>
      <trkpt lat="48.21336" lon="-3.05066">
        <ele>151.597656</ele>
        <time>2020-07-25T08:44:29.000Z</time>
      </trkpt>
      <trkpt lat="48.21335" lon="-3.05089">
        <ele>150.898438</ele>
        <time>2020-07-25T08:44:31.000Z</time>
      </trkpt>
      <trkpt lat="48.21334" lon="-3.05111">
        <ele>149.898438</ele>
        <time>2020-07-25T08:44:33.000Z</time>
      </trkpt>
      <trkpt lat="48.2133" lon="-3.05133">
        <ele>148.898438</ele>
        <time>2020-07-25T08:44:35.000Z</time>
      </trkpt>
      <trkpt lat="48.21324" lon="-3.05154">
        <ele>147.796875</ele>
        <time>2020-07-25T08:44:37.000Z</time>
      </trkpt>
      <trkpt lat="48.21316" lon="-3.05173">
        <ele>146.597656</ele>
        <time>2020-07-25T08:44:39.000Z</time>
      </trkpt>
      <trkpt lat="48.21299" lon="-3.05211">
        <ele>144.796875</ele>
        <time>2020-07-25T08:44:43.000Z</time>
      </trkpt>
      <trkpt lat="48.21291" lon="-3.05227">
        <ele>144.597656</ele>
        <time>2020-07-25T08:44:45.000Z</time>
      </trkpt>
      <trkpt lat="48.21283" lon="-3.0524">
        <ele>144.796875</ele>
        <time>2020-07-25T08:44:47.000Z</time>
      </trkpt>
      <trkpt lat="48.21276" lon="-3.05248">
        <ele>145.296875</ele>
        <time>2020-07-25T08:44:49.000Z</time>
      </trkpt>
      <trkpt lat="48.21265" lon="-3.05253">
        <ele>145.796875</ele>
        <time>2020-07-25T08:44:52.000Z</time>
      </trkpt>
      <trkpt lat="48.21253" lon="-3.05253">
        <ele>146.296875</ele>
        <time>2020-07-25T08:44:55.000Z</time>
      </trkpt>
      <trkpt lat="48.21241" lon="-3.05247">
        <ele>146.699219</ele>
        <time>2020-07-25T08:44:58.000Z</time>
      </trkpt>
      <trkpt lat="48.21233" lon="-3.05238">
        <ele>146.699219</ele>
        <time>2020-07-25T08:45:01.000Z</time>
      </trkpt>
      <trkpt lat="48.21224" lon="-3.05227">
        <ele>146.699219</ele>
        <time>2020-07-25T08:45:04.000Z</time>
      </trkpt>
      <trkpt lat="48.21216" lon="-3.05216">
        <ele>146.898438</ele>
        <time>2020-07-25T08:45:07.000Z</time>
      </trkpt>
      <trkpt lat="48.21208" lon="-3.05207">
        <ele>147.097656</ele>
        <time>2020-07-25T08:45:10.000Z</time>
      </trkpt>
      <trkpt lat="48.21189" lon="-3.05191">
        <ele>149.398438</ele>
        <time>2020-07-25T08:45:16.000Z</time>
      </trkpt>
      <trkpt lat="48.21179" lon="-3.05186">
        <ele>150.796875</ele>
        <time>2020-07-25T08:45:19.000Z</time>
      </trkpt>
      <trkpt lat="48.21169" lon="-3.05182">
        <ele>152</ele>
        <time>2020-07-25T08:45:22.000Z</time>
      </trkpt>
      <trkpt lat="48.21159" lon="-3.05176">
        <ele>153.097656</ele>
        <time>2020-07-25T08:45:25.000Z</time>
      </trkpt>
      <trkpt lat="48.21149" lon="-3.05169">
        <ele>153.699219</ele>
        <time>2020-07-25T08:45:28.000Z</time>
      </trkpt>
      <trkpt lat="48.21121" lon="-3.05146">
        <ele>157.5</ele>
        <time>2020-07-25T08:45:40.000Z</time>
      </trkpt>
      <trkpt lat="48.21106" lon="-3.05131">
        <ele>161</ele>
        <time>2020-07-25T08:45:46.000Z</time>
      </trkpt>
      <trkpt lat="48.21087" lon="-3.05109">
        <ele>162.296875</ele>
        <time>2020-07-25T08:45:54.000Z</time>
      </trkpt>
      <trkpt lat="48.21079" lon="-3.05103">
        <ele>163.5</ele>
        <time>2020-07-25T08:45:57.000Z</time>
      </trkpt>
      <trkpt lat="48.21071" lon="-3.05098">
        <ele>164.796875</ele>
        <time>2020-07-25T08:46:00.000Z</time>
      </trkpt>
      <trkpt lat="48.2106" lon="-3.05096">
        <ele>166.097656</ele>
        <time>2020-07-25T08:46:04.000Z</time>
      </trkpt>
      <trkpt lat="48.21048" lon="-3.05099">
        <ele>167.097656</ele>
        <time>2020-07-25T08:46:08.000Z</time>
      </trkpt>
      <trkpt lat="48.21016" lon="-3.05109">
        <ele>166.898438</ele>
        <time>2020-07-25T08:46:20.000Z</time>
      </trkpt>
      <trkpt lat="48.21007" lon="-3.05118">
        <ele>165.199219</ele>
        <time>2020-07-25T08:46:23.000Z</time>
      </trkpt>
      <trkpt lat="48.20996" lon="-3.05131">
        <ele>163.796875</ele>
        <time>2020-07-25T08:46:26.000Z</time>
      </trkpt>
      <trkpt lat="48.2098" lon="-3.05151">
        <ele>162.097656</ele>
        <time>2020-07-25T08:46:30.000Z</time>
      </trkpt>
      <trkpt lat="48.20971" lon="-3.0516">
        <ele>161.699219</ele>
        <time>2020-07-25T08:46:32.000Z</time>
      </trkpt>
      <trkpt lat="48.20961" lon="-3.05166">
        <ele>161.296875</ele>
        <time>2020-07-25T08:46:34.000Z</time>
      </trkpt>
      <trkpt lat="48.2095" lon="-3.05169">
        <ele>160.898438</ele>
        <time>2020-07-25T08:46:36.000Z</time>
      </trkpt>
      <trkpt lat="48.20938" lon="-3.0517">
        <ele>160.597656</ele>
        <time>2020-07-25T08:46:38.000Z</time>
      </trkpt>
      <trkpt lat="48.20926" lon="-3.05169">
        <ele>160.296875</ele>
        <time>2020-07-25T08:46:40.000Z</time>
      </trkpt>
      <trkpt lat="48.20914" lon="-3.05165">
        <ele>159.898438</ele>
        <time>2020-07-25T08:46:42.000Z</time>
      </trkpt>
      <trkpt lat="48.20902" lon="-3.05161">
        <ele>159.199219</ele>
        <time>2020-07-25T08:46:44.000Z</time>
      </trkpt>
      <trkpt lat="48.20891" lon="-3.05155">
        <ele>158.097656</ele>
        <time>2020-07-25T08:46:46.000Z</time>
      </trkpt>
      <trkpt lat="48.2088" lon="-3.05148">
        <ele>157.097656</ele>
        <time>2020-07-25T08:46:48.000Z</time>
      </trkpt>
      <trkpt lat="48.20785" lon="-3.05073">
        <ele>150</ele>
        <time>2020-07-25T08:47:04.000Z</time>
      </trkpt>
      <trkpt lat="48.20774" lon="-3.05062">
        <ele>149.597656</ele>
        <time>2020-07-25T08:47:06.000Z</time>
      </trkpt>
      <trkpt lat="48.20763" lon="-3.05049">
        <ele>149.597656</ele>
        <time>2020-07-25T08:47:08.000Z</time>
      </trkpt>
      <trkpt lat="48.20752" lon="-3.05035">
        <ele>149.097656</ele>
        <time>2020-07-25T08:47:10.000Z</time>
      </trkpt>
      <trkpt lat="48.20732" lon="-3.05002">
        <ele>146.699219</ele>
        <time>2020-07-25T08:47:14.000Z</time>
      </trkpt>
      <trkpt lat="48.20687" lon="-3.04928">
        <ele>139.898438</ele>
        <time>2020-07-25T08:47:24.000Z</time>
      </trkpt>
      <trkpt lat="48.20676" lon="-3.04923">
        <ele>143.5</ele>
        <time>2020-07-25T08:47:27.000Z</time>
      </trkpt>
      <trkpt lat="48.20685" lon="-3.04921">
        <ele>143.5</ele>
        <time>2020-07-25T08:48:28.000Z</time>
      </trkpt>
      <trkpt lat="48.20692" lon="-3.0493">
        <ele>144.097656</ele>
        <time>2020-07-25T08:48:31.000Z</time>
      </trkpt>
      <trkpt lat="48.20698" lon="-3.0494">
        <ele>145.398438</ele>
        <time>2020-07-25T08:48:34.000Z</time>
      </trkpt>
      <trkpt lat="48.20705" lon="-3.0495">
        <ele>144.796875</ele>
        <time>2020-07-25T08:48:39.000Z</time>
      </trkpt>
      <trkpt lat="48.20696" lon="-3.04941">
        <ele>144</ele>
        <time>2020-07-25T08:48:49.000Z</time>
      </trkpt>
      <trkpt lat="48.20689" lon="-3.0493">
        <ele>143.199219</ele>
        <time>2020-07-25T08:48:52.000Z</time>
      </trkpt>
      <trkpt lat="48.20678" lon="-3.04924">
        <ele>142.296875</ele>
        <time>2020-07-25T08:48:56.000Z</time>
      </trkpt>
      <trkpt lat="48.20666" lon="-3.04923">
        <ele>141.296875</ele>
        <time>2020-07-25T08:48:59.000Z</time>
      </trkpt>
      <trkpt lat="48.20654" lon="-3.04928">
        <ele>141</ele>
        <time>2020-07-25T08:49:02.000Z</time>
      </trkpt>
      <trkpt lat="48.20643" lon="-3.04931">
        <ele>140.597656</ele>
        <time>2020-07-25T08:49:05.000Z</time>
      </trkpt>
      <trkpt lat="48.20633" lon="-3.04927">
        <ele>139.5</ele>
        <time>2020-07-25T08:49:08.000Z</time>
      </trkpt>
      <trkpt lat="48.20624" lon="-3.0492">
        <ele>138.097656</ele>
        <time>2020-07-25T08:49:11.000Z</time>
      </trkpt>
      <trkpt lat="48.20617" lon="-3.04905">
        <ele>137</ele>
        <time>2020-07-25T08:49:14.000Z</time>
      </trkpt>
      <trkpt lat="48.20615" lon="-3.04892">
        <ele>136</ele>
        <time>2020-07-25T08:49:16.000Z</time>
      </trkpt>
      <trkpt lat="48.20608" lon="-3.04861">
        <ele>134.5</ele>
        <time>2020-07-25T08:49:20.000Z</time>
      </trkpt>
      <trkpt lat="48.20603" lon="-3.04844">
        <ele>134.097656</ele>
        <time>2020-07-25T08:49:22.000Z</time>
      </trkpt>
      <trkpt lat="48.20597" lon="-3.04827">
        <ele>133.796875</ele>
        <time>2020-07-25T08:49:24.000Z</time>
      </trkpt>
      <trkpt lat="48.20589" lon="-3.04812">
        <ele>133.5</ele>
        <time>2020-07-25T08:49:26.000Z</time>
      </trkpt>
      <trkpt lat="48.20566" lon="-3.04769">
        <ele>132.898438</ele>
        <time>2020-07-25T08:49:32.000Z</time>
      </trkpt>
      <trkpt lat="48.2056" lon="-3.04755">
        <ele>132.597656</ele>
        <time>2020-07-25T08:49:34.000Z</time>
      </trkpt>
      <trkpt lat="48.20556" lon="-3.04741">
        <ele>132.296875</ele>
        <time>2020-07-25T08:49:36.000Z</time>
      </trkpt>
      <trkpt lat="48.20553" lon="-3.04728">
        <ele>132</ele>
        <time>2020-07-25T08:49:38.000Z</time>
      </trkpt>
      <trkpt lat="48.20552" lon="-3.0471">
        <ele>131.796875</ele>
        <time>2020-07-25T08:49:41.000Z</time>
      </trkpt>
      <trkpt lat="48.20553" lon="-3.04694">
        <ele>131.597656</ele>
        <time>2020-07-25T08:49:44.000Z</time>
      </trkpt>
      <trkpt lat="48.20557" lon="-3.04678">
        <ele>131.597656</ele>
        <time>2020-07-25T08:49:47.000Z</time>
      </trkpt>
      <trkpt lat="48.20563" lon="-3.04664">
        <ele>131.5</ele>
        <time>2020-07-25T08:49:50.000Z</time>
      </trkpt>
      <trkpt lat="48.20575" lon="-3.04638">
        <ele>132.097656</ele>
        <time>2020-07-25T08:49:58.000Z</time>
      </trkpt>
      <trkpt lat="48.20582" lon="-3.0463">
        <ele>132.5</ele>
        <time>2020-07-25T08:50:03.000Z</time>
      </trkpt>
      <trkpt lat="48.20592" lon="-3.04622">
        <ele>132.796875</ele>
        <time>2020-07-25T08:50:09.000Z</time>
      </trkpt>
      <trkpt lat="48.2061" lon="-3.04607">
        <ele>136.5</ele>
        <time>2020-07-25T08:50:19.000Z</time>
      </trkpt>
      <trkpt lat="48.20619" lon="-3.04617">
        <ele>136.898438</ele>
        <time>2020-07-25T08:52:54.000Z</time>
      </trkpt>
      <trkpt lat="48.20628" lon="-3.04619">
        <ele>137.296875</ele>
        <time>2020-07-25T08:52:58.000Z</time>
      </trkpt>
      <trkpt lat="48.20637" lon="-3.04626">
        <ele>137.5</ele>
        <time>2020-07-25T08:53:03.000Z</time>
      </trkpt>
      <trkpt lat="48.20644" lon="-3.04636">
        <ele>137.898438</ele>
        <time>2020-07-25T08:53:07.000Z</time>
      </trkpt>
      <trkpt lat="48.2065" lon="-3.04647">
        <ele>138.296875</ele>
        <time>2020-07-25T08:53:11.000Z</time>
      </trkpt>
      <trkpt lat="48.20661" lon="-3.04671">
        <ele>138.898438</ele>
        <time>2020-07-25T08:53:19.000Z</time>
      </trkpt>
      <trkpt lat="48.20666" lon="-3.04684">
        <ele>139.5</ele>
        <time>2020-07-25T08:53:23.000Z</time>
      </trkpt>
      <trkpt lat="48.20685" lon="-3.04722">
        <ele>140.199219</ele>
        <time>2020-07-25T08:53:34.000Z</time>
      </trkpt>
      <trkpt lat="48.20688" lon="-3.04738">
        <ele>140.898438</ele>
        <time>2020-07-25T08:53:38.000Z</time>
      </trkpt>
      <trkpt lat="48.20689" lon="-3.04754">
        <ele>141.597656</ele>
        <time>2020-07-25T08:53:42.000Z</time>
      </trkpt>
      <trkpt lat="48.20688" lon="-3.04768">
        <ele>142.597656</ele>
        <time>2020-07-25T08:53:46.000Z</time>
      </trkpt>
      <trkpt lat="48.20686" lon="-3.04798">
        <ele>143.898438</ele>
        <time>2020-07-25T08:53:54.000Z</time>
      </trkpt>
      <trkpt lat="48.20684" lon="-3.04813">
        <ele>144.5</ele>
        <time>2020-07-25T08:53:58.000Z</time>
      </trkpt>
      <trkpt lat="48.20682" lon="-3.04845">
        <ele>144.898438</ele>
        <time>2020-07-25T08:54:06.000Z</time>
      </trkpt>
      <trkpt lat="48.20679" lon="-3.04876">
        <ele>145.699219</ele>
        <time>2020-07-25T08:54:14.000Z</time>
      </trkpt>
      <trkpt lat="48.20679" lon="-3.04891">
        <ele>145.796875</ele>
        <time>2020-07-25T08:54:18.000Z</time>
      </trkpt>
      <trkpt lat="48.20678" lon="-3.04906">
        <ele>145.597656</ele>
        <time>2020-07-25T08:54:23.000Z</time>
      </trkpt>
      <trkpt lat="48.20671" lon="-3.04916">
        <ele>144.699219</ele>
        <time>2020-07-25T08:54:28.000Z</time>
      </trkpt>
      <trkpt lat="48.20661" lon="-3.04923">
        <ele>144</ele>
        <time>2020-07-25T08:54:31.000Z</time>
      </trkpt>
      <trkpt lat="48.20652" lon="-3.04929">
        <ele>143.898438</ele>
        <time>2020-07-25T08:54:33.000Z</time>
      </trkpt>
      <trkpt lat="48.20644" lon="-3.04939">
        <ele>144.5</ele>
        <time>2020-07-25T08:54:35.000Z</time>
      </trkpt>
      <trkpt lat="48.20638" lon="-3.04955">
        <ele>145.5</ele>
        <time>2020-07-25T08:54:38.000Z</time>
      </trkpt>
      <trkpt lat="48.20636" lon="-3.04969">
        <ele>146.796875</ele>
        <time>2020-07-25T08:54:41.000Z</time>
      </trkpt>
      <trkpt lat="48.20636" lon="-3.04987">
        <ele>147.898438</ele>
        <time>2020-07-25T08:54:45.000Z</time>
      </trkpt>
      <trkpt lat="48.20641" lon="-3.05003">
        <ele>149</ele>
        <time>2020-07-25T08:54:49.000Z</time>
      </trkpt>
      <trkpt lat="48.20647" lon="-3.05018">
        <ele>149.597656</ele>
        <time>2020-07-25T08:54:53.000Z</time>
      </trkpt>
      <trkpt lat="48.20652" lon="-3.05029">
        <ele>150.398438</ele>
        <time>2020-07-25T08:54:56.000Z</time>
      </trkpt>
      <trkpt lat="48.2073" lon="-3.05196">
        <ele>157.796875</ele>
        <time>2020-07-25T08:55:42.000Z</time>
      </trkpt>
      <trkpt lat="48.20768" lon="-3.05261">
        <ele>159.398438</ele>
        <time>2020-07-25T08:56:02.000Z</time>
      </trkpt>
      <trkpt lat="48.20777" lon="-3.05272">
        <ele>159.597656</ele>
        <time>2020-07-25T08:56:06.000Z</time>
      </trkpt>
      <trkpt lat="48.20805" lon="-3.05304">
        <ele>159.199219</ele>
        <time>2020-07-25T08:56:18.000Z</time>
      </trkpt>
      <trkpt lat="48.20823" lon="-3.05324">
        <ele>159.796875</ele>
        <time>2020-07-25T08:56:26.000Z</time>
      </trkpt>
      <trkpt lat="48.20833" lon="-3.05333">
        <ele>160.699219</ele>
        <time>2020-07-25T08:56:30.000Z</time>
      </trkpt>
      <trkpt lat="48.20851" lon="-3.05353">
        <ele>160.699219</ele>
        <time>2020-07-25T08:56:38.000Z</time>
      </trkpt>
      <trkpt lat="48.2086" lon="-3.05361">
        <ele>160.296875</ele>
        <time>2020-07-25T08:56:42.000Z</time>
      </trkpt>
      <trkpt lat="48.20871" lon="-3.05368">
        <ele>159.597656</ele>
        <time>2020-07-25T08:56:46.000Z</time>
      </trkpt>
      <trkpt lat="48.20883" lon="-3.05373">
        <ele>159.097656</ele>
        <time>2020-07-25T08:56:50.000Z</time>
      </trkpt>
      <trkpt lat="48.20894" lon="-3.05373">
        <ele>159.699219</ele>
        <time>2020-07-25T08:56:53.000Z</time>
      </trkpt>
      <trkpt lat="48.20957" lon="-3.05378">
        <ele>164.796875</ele>
        <time>2020-07-25T08:57:06.000Z</time>
      </trkpt>
      <trkpt lat="48.20967" lon="-3.05382">
        <ele>165.097656</ele>
        <time>2020-07-25T08:57:09.000Z</time>
      </trkpt>
      <trkpt lat="48.20972" lon="-3.05394">
        <ele>165.398438</ele>
        <time>2020-07-25T08:57:12.000Z</time>
      </trkpt>
      <trkpt lat="48.20974" lon="-3.05411">
        <ele>165.898438</ele>
        <time>2020-07-25T08:57:15.000Z</time>
      </trkpt>
      <trkpt lat="48.20988" lon="-3.05606">
        <ele>174.097656</ele>
        <time>2020-07-25T08:57:51.000Z</time>
      </trkpt>
      <trkpt lat="48.20992" lon="-3.05621">
        <ele>175</ele>
        <time>2020-07-25T08:57:54.000Z</time>
      </trkpt>
      <trkpt lat="48.21005" lon="-3.05678">
        <ele>179.199219</ele>
        <time>2020-07-25T08:58:07.000Z</time>
      </trkpt>
      <trkpt lat="48.21011" lon="-3.05692">
        <ele>179.898438</ele>
        <time>2020-07-25T08:58:11.000Z</time>
      </trkpt>
      <trkpt lat="48.21018" lon="-3.05705">
        <ele>180.597656</ele>
        <time>2020-07-25T08:58:15.000Z</time>
      </trkpt>
      <trkpt lat="48.2103" lon="-3.05727">
        <ele>181.597656</ele>
        <time>2020-07-25T08:58:23.000Z</time>
      </trkpt>
      <trkpt lat="48.21035" lon="-3.05739">
        <ele>182.199219</ele>
        <time>2020-07-25T08:58:27.000Z</time>
      </trkpt>
      <trkpt lat="48.21037" lon="-3.05753">
        <ele>182.199219</ele>
        <time>2020-07-25T08:58:31.000Z</time>
      </trkpt>
      <trkpt lat="48.21037" lon="-3.05767">
        <ele>181.898438</ele>
        <time>2020-07-25T08:58:34.000Z</time>
      </trkpt>
      <trkpt lat="48.21034" lon="-3.05783">
        <ele>181.597656</ele>
        <time>2020-07-25T08:58:37.000Z</time>
      </trkpt>
      <trkpt lat="48.21028" lon="-3.05816">
        <ele>182.097656</ele>
        <time>2020-07-25T08:58:43.000Z</time>
      </trkpt>
      <trkpt lat="48.21024" lon="-3.05833">
        <ele>182.097656</ele>
        <time>2020-07-25T08:58:46.000Z</time>
      </trkpt>
      <trkpt lat="48.21014" lon="-3.05862">
        <ele>183.199219</ele>
        <time>2020-07-25T08:58:52.000Z</time>
      </trkpt>
      <trkpt lat="48.21009" lon="-3.05876">
        <ele>183.597656</ele>
        <time>2020-07-25T08:58:55.000Z</time>
      </trkpt>
      <trkpt lat="48.20998" lon="-3.05903">
        <ele>184.398438</ele>
        <time>2020-07-25T08:59:01.000Z</time>
      </trkpt>
      <trkpt lat="48.20994" lon="-3.05918">
        <ele>184.296875</ele>
        <time>2020-07-25T08:59:04.000Z</time>
      </trkpt>
      <trkpt lat="48.20974" lon="-3.05995">
        <ele>183.796875</ele>
        <time>2020-07-25T08:59:19.000Z</time>
      </trkpt>
      <trkpt lat="48.20971" lon="-3.0601">
        <ele>184.097656</ele>
        <time>2020-07-25T08:59:22.000Z</time>
      </trkpt>
      <trkpt lat="48.2097" lon="-3.06025">
        <ele>184.597656</ele>
        <time>2020-07-25T08:59:25.000Z</time>
      </trkpt>
      <trkpt lat="48.20972" lon="-3.0604">
        <ele>185.097656</ele>
        <time>2020-07-25T08:59:28.000Z</time>
      </trkpt>
      <trkpt lat="48.20975" lon="-3.06054">
        <ele>185.398438</ele>
        <time>2020-07-25T08:59:31.000Z</time>
      </trkpt>
      <trkpt lat="48.20984" lon="-3.06082">
        <ele>185.796875</ele>
        <time>2020-07-25T08:59:37.000Z</time>
      </trkpt>
      <trkpt lat="48.20995" lon="-3.06123">
        <ele>187.296875</ele>
        <time>2020-07-25T08:59:46.000Z</time>
      </trkpt>
      <trkpt lat="48.20997" lon="-3.0614">
        <ele>188.597656</ele>
        <time>2020-07-25T08:59:50.000Z</time>
      </trkpt>
      <trkpt lat="48.20999" lon="-3.06155">
        <ele>189.5</ele>
        <time>2020-07-25T08:59:55.000Z</time>
      </trkpt>
      <trkpt lat="48.20995" lon="-3.06168">
        <ele>190.597656</ele>
        <time>2020-07-25T09:00:03.000Z</time>
      </trkpt>
      <trkpt lat="48.2099" lon="-3.06183">
        <ele>191</ele>
        <time>2020-07-25T09:00:08.000Z</time>
      </trkpt>
      <trkpt lat="48.20968" lon="-3.06248">
        <ele>192.898438</ele>
        <time>2020-07-25T09:00:24.000Z</time>
      </trkpt>
      <trkpt lat="48.20965" lon="-3.06262">
        <ele>192.597656</ele>
        <time>2020-07-25T09:00:27.000Z</time>
      </trkpt>
      <trkpt lat="48.20962" lon="-3.06276">
        <ele>192.597656</ele>
        <time>2020-07-25T09:00:30.000Z</time>
      </trkpt>
      <trkpt lat="48.20961" lon="-3.0629">
        <ele>192.699219</ele>
        <time>2020-07-25T09:00:33.000Z</time>
      </trkpt>
      <trkpt lat="48.20959" lon="-3.06305">
        <ele>192.597656</ele>
        <time>2020-07-25T09:00:36.000Z</time>
      </trkpt>
      <trkpt lat="48.20959" lon="-3.06319">
        <ele>192.398438</ele>
        <time>2020-07-25T09:00:39.000Z</time>
      </trkpt>
      <trkpt lat="48.20961" lon="-3.06335">
        <ele>191.5</ele>
        <time>2020-07-25T09:00:43.000Z</time>
      </trkpt>
      <trkpt lat="48.20964" lon="-3.06349">
        <ele>189.5</ele>
        <time>2020-07-25T09:00:48.000Z</time>
      </trkpt>
      <trkpt lat="48.2097" lon="-3.06361">
        <ele>188.199219</ele>
        <time>2020-07-25T09:00:53.000Z</time>
      </trkpt>
      <trkpt lat="48.2098" lon="-3.06368">
        <ele>185.796875</ele>
        <time>2020-07-25T09:00:58.000Z</time>
      </trkpt>
      <trkpt lat="48.20988" lon="-3.06375">
        <ele>184.796875</ele>
        <time>2020-07-25T09:01:04.000Z</time>
      </trkpt>
      <trkpt lat="48.2099" lon="-3.06391">
        <ele>184.898438</ele>
        <time>2020-07-25T09:01:11.000Z</time>
      </trkpt>
      <trkpt lat="48.20993" lon="-3.06406">
        <ele>183.796875</ele>
        <time>2020-07-25T09:01:17.000Z</time>
      </trkpt>
      <trkpt lat="48.20996" lon="-3.06419">
        <ele>181.898438</ele>
        <time>2020-07-25T09:01:22.000Z</time>
      </trkpt>
      <trkpt lat="48.20998" lon="-3.06434">
        <ele>180.699219</ele>
        <time>2020-07-25T09:01:27.000Z</time>
      </trkpt>
      <trkpt lat="48.20995" lon="-3.06448">
        <ele>181.097656</ele>
        <time>2020-07-25T09:01:32.000Z</time>
      </trkpt>
      <trkpt lat="48.20991" lon="-3.06463">
        <ele>181.097656</ele>
        <time>2020-07-25T09:01:38.000Z</time>
      </trkpt>
      <trkpt lat="48.20993" lon="-3.06478">
        <ele>178.398438</ele>
        <time>2020-07-25T09:01:45.000Z</time>
      </trkpt>
      <trkpt lat="48.20994" lon="-3.06492">
        <ele>176.296875</ele>
        <time>2020-07-25T09:01:50.000Z</time>
      </trkpt>
      <trkpt lat="48.20992" lon="-3.06507">
        <ele>174.199219</ele>
        <time>2020-07-25T09:01:54.000Z</time>
      </trkpt>
      <trkpt lat="48.20988" lon="-3.06536">
        <ele>175.796875</ele>
        <time>2020-07-25T09:02:04.000Z</time>
      </trkpt>
      <trkpt lat="48.20982" lon="-3.06568">
        <ele>178.097656</ele>
        <time>2020-07-25T09:02:12.000Z</time>
      </trkpt>
      <trkpt lat="48.20981" lon="-3.06583">
        <ele>178.296875</ele>
        <time>2020-07-25T09:02:16.000Z</time>
      </trkpt>
      <trkpt lat="48.2098" lon="-3.06599">
        <ele>180.097656</ele>
        <time>2020-07-25T09:02:21.000Z</time>
      </trkpt>
      <trkpt lat="48.20978" lon="-3.06615">
        <ele>180.199219</ele>
        <time>2020-07-25T09:02:26.000Z</time>
      </trkpt>
      <trkpt lat="48.20978" lon="-3.06629">
        <ele>178.796875</ele>
        <time>2020-07-25T09:02:30.000Z</time>
      </trkpt>
      <trkpt lat="48.20979" lon="-3.06674">
        <ele>173.5</ele>
        <time>2020-07-25T09:02:43.000Z</time>
      </trkpt>
      <trkpt lat="48.20979" lon="-3.06702">
        <ele>170.597656</ele>
        <time>2020-07-25T09:02:51.000Z</time>
      </trkpt>
      <trkpt lat="48.20982" lon="-3.06733">
        <ele>165.398438</ele>
        <time>2020-07-25T09:03:00.000Z</time>
      </trkpt>
      <trkpt lat="48.20985" lon="-3.06747">
        <ele>163.097656</ele>
        <time>2020-07-25T09:03:05.000Z</time>
      </trkpt>
      <trkpt lat="48.20986" lon="-3.06763">
        <ele>161.5</ele>
        <time>2020-07-25T09:03:11.000Z</time>
      </trkpt>
      <trkpt lat="48.20991" lon="-3.06822">
        <ele>156.796875</ele>
        <time>2020-07-25T09:03:35.000Z</time>
      </trkpt>
      <trkpt lat="48.20995" lon="-3.06837">
        <ele>157.597656</ele>
        <time>2020-07-25T09:03:40.000Z</time>
      </trkpt>
      <trkpt lat="48.21002" lon="-3.06846">
        <ele>159</ele>
        <time>2020-07-25T09:03:50.000Z</time>
      </trkpt>
      <trkpt lat="48.21012" lon="-3.0685">
        <ele>159.199219</ele>
        <time>2020-07-25T09:03:58.000Z</time>
      </trkpt>
      <trkpt lat="48.21021" lon="-3.06852">
        <ele>159.699219</ele>
        <time>2020-07-25T09:04:03.000Z</time>
      </trkpt>
      <trkpt lat="48.2105" lon="-3.0686">
        <ele>158.597656</ele>
        <time>2020-07-25T09:04:21.000Z</time>
      </trkpt>
      <trkpt lat="48.21058" lon="-3.06866">
        <ele>160.199219</ele>
        <time>2020-07-25T09:04:30.000Z</time>
      </trkpt>
      <trkpt lat="48.21068" lon="-3.06869">
        <ele>161.796875</ele>
        <time>2020-07-25T09:04:36.000Z</time>
      </trkpt>
      <trkpt lat="48.21078" lon="-3.06872">
        <ele>162.5</ele>
        <time>2020-07-25T09:04:43.000Z</time>
      </trkpt>
      <trkpt lat="48.21106" lon="-3.06887">
        <ele>164.796875</ele>
        <time>2020-07-25T09:05:00.000Z</time>
      </trkpt>
      <trkpt lat="48.21115" lon="-3.06889">
        <ele>164.5</ele>
        <time>2020-07-25T09:05:05.000Z</time>
      </trkpt>
      <trkpt lat="48.21125" lon="-3.06891">
        <ele>163.898438</ele>
        <time>2020-07-25T09:05:09.000Z</time>
      </trkpt>
      <trkpt lat="48.21155" lon="-3.06893">
        <ele>166</ele>
        <time>2020-07-25T09:05:22.000Z</time>
      </trkpt>
      <trkpt lat="48.21166" lon="-3.06897">
        <ele>166.398438</ele>
        <time>2020-07-25T09:05:26.000Z</time>
      </trkpt>
      <trkpt lat="48.21177" lon="-3.069">
        <ele>168.097656</ele>
        <time>2020-07-25T09:05:30.000Z</time>
      </trkpt>
      <trkpt lat="48.21188" lon="-3.069">
        <ele>168.796875</ele>
        <time>2020-07-25T09:05:50.000Z</time>
      </trkpt>
      <trkpt lat="48.21198" lon="-3.06898">
        <ele>169.699219</ele>
        <time>2020-07-25T09:05:56.000Z</time>
      </trkpt>
      <trkpt lat="48.21296" lon="-3.06881">
        <ele>173.199219</ele>
        <time>2020-07-25T09:06:42.000Z</time>
      </trkpt>
      <trkpt lat="48.21305" lon="-3.06873">
        <ele>173.597656</ele>
        <time>2020-07-25T09:06:47.000Z</time>
      </trkpt>
      <trkpt lat="48.21308" lon="-3.06858">
        <ele>174.597656</ele>
        <time>2020-07-25T09:06:52.000Z</time>
      </trkpt>
      <trkpt lat="48.21309" lon="-3.06843">
        <ele>175.398438</ele>
        <time>2020-07-25T09:06:57.000Z</time>
      </trkpt>
      <trkpt lat="48.21309" lon="-3.06828">
        <ele>176.597656</ele>
        <time>2020-07-25T09:07:02.000Z</time>
      </trkpt>
      <trkpt lat="48.21307" lon="-3.06813">
        <ele>178.097656</ele>
        <time>2020-07-25T09:07:07.000Z</time>
      </trkpt>
      <trkpt lat="48.21302" lon="-3.0677">
        <ele>181</ele>
        <time>2020-07-25T09:07:22.000Z</time>
      </trkpt>
      <trkpt lat="48.21298" lon="-3.06711">
        <ele>186.097656</ele>
        <time>2020-07-25T09:07:41.000Z</time>
      </trkpt>
      <trkpt lat="48.21297" lon="-3.06695">
        <ele>187.597656</ele>
        <time>2020-07-25T09:07:46.000Z</time>
      </trkpt>
      <trkpt lat="48.21303" lon="-3.06684">
        <ele>188.097656</ele>
        <time>2020-07-25T09:07:51.000Z</time>
      </trkpt>
      <trkpt lat="48.21312" lon="-3.06686">
        <ele>188.296875</ele>
        <time>2020-07-25T09:07:56.000Z</time>
      </trkpt>
      <trkpt lat="48.21323" lon="-3.06688">
        <ele>188.597656</ele>
        <time>2020-07-25T09:08:01.000Z</time>
      </trkpt>
      <trkpt lat="48.21334" lon="-3.06691">
        <ele>189</ele>
        <time>2020-07-25T09:08:06.000Z</time>
      </trkpt>
      <trkpt lat="48.21344" lon="-3.06695">
        <ele>189.5</ele>
        <time>2020-07-25T09:08:11.000Z</time>
      </trkpt>
      <trkpt lat="48.21355" lon="-3.06695">
        <ele>191</ele>
        <time>2020-07-25T09:08:16.000Z</time>
      </trkpt>
      <trkpt lat="48.21361" lon="-3.06683">
        <ele>189.398438</ele>
        <time>2020-07-25T09:08:22.000Z</time>
      </trkpt>
      <trkpt lat="48.21365" lon="-3.06668">
        <ele>189.898438</ele>
        <time>2020-07-25T09:08:28.000Z</time>
      </trkpt>
      <trkpt lat="48.21368" lon="-3.06654">
        <ele>189.898438</ele>
        <time>2020-07-25T09:08:33.000Z</time>
      </trkpt>
      <trkpt lat="48.21371" lon="-3.06638">
        <ele>189.796875</ele>
        <time>2020-07-25T09:08:39.000Z</time>
      </trkpt>
      <trkpt lat="48.21379" lon="-3.06646">
        <ele>189</ele>
        <time>2020-07-25T09:08:52.000Z</time>
      </trkpt>
      <trkpt lat="48.21382" lon="-3.06661">
        <ele>193.898438</ele>
        <time>2020-07-25T09:08:57.000Z</time>
      </trkpt>
      <trkpt lat="48.21382" lon="-3.06646">
        <ele>194.398438</ele>
        <time>2020-07-25T09:09:38.000Z</time>
      </trkpt>
      <trkpt lat="48.21381" lon="-3.06633">
        <ele>195.296875</ele>
        <time>2020-07-25T09:09:42.000Z</time>
      </trkpt>
      <trkpt lat="48.21379" lon="-3.06619">
        <ele>197.398438</ele>
        <time>2020-07-25T09:09:48.000Z</time>
      </trkpt>
      <trkpt lat="48.21384" lon="-3.06605">
        <ele>198.398438</ele>
        <time>2020-07-25T09:13:27.000Z</time>
      </trkpt>
      <trkpt lat="48.21383" lon="-3.0659">
        <ele>199.398438</ele>
        <time>2020-07-25T09:13:34.000Z</time>
      </trkpt>
      <trkpt lat="48.21376" lon="-3.06481">
        <ele>200.199219</ele>
        <time>2020-07-25T09:14:08.000Z</time>
      </trkpt>
      <trkpt lat="48.21374" lon="-3.06467">
        <ele>200.398438</ele>
        <time>2020-07-25T09:14:11.000Z</time>
      </trkpt>
      <trkpt lat="48.21365" lon="-3.06389">
        <ele>200.097656</ele>
        <time>2020-07-25T09:14:23.000Z</time>
      </trkpt>
      <trkpt lat="48.21364" lon="-3.0637">
        <ele>201.199219</ele>
        <time>2020-07-25T09:14:26.000Z</time>
      </trkpt>
      <trkpt lat="48.21368" lon="-3.06356">
        <ele>201.398438</ele>
        <time>2020-07-25T09:14:30.000Z</time>
      </trkpt>
      <trkpt lat="48.21377" lon="-3.06356">
        <ele>201.699219</ele>
        <time>2020-07-25T09:14:34.000Z</time>
      </trkpt>
      <trkpt lat="48.21386" lon="-3.06364">
        <ele>202.398438</ele>
        <time>2020-07-25T09:14:38.000Z</time>
      </trkpt>
      <trkpt lat="48.21425" lon="-3.06397">
        <ele>205.398438</ele>
        <time>2020-07-25T09:14:53.000Z</time>
      </trkpt>
      <trkpt lat="48.21483" lon="-3.06439">
        <ele>202.597656</ele>
        <time>2020-07-25T09:15:14.000Z</time>
      </trkpt>
      <trkpt lat="48.21493" lon="-3.06447">
        <ele>200.597656</ele>
        <time>2020-07-25T09:15:18.000Z</time>
      </trkpt>
      <trkpt lat="48.21521" lon="-3.0647">
        <ele>195.898438</ele>
        <time>2020-07-25T09:15:30.000Z</time>
      </trkpt>
      <trkpt lat="48.21531" lon="-3.06476">
        <ele>198.097656</ele>
        <time>2020-07-25T09:15:34.000Z</time>
      </trkpt>
      <trkpt lat="48.21539" lon="-3.06486">
        <ele>199.699219</ele>
        <time>2020-07-25T09:15:38.000Z</time>
      </trkpt>
      <trkpt lat="48.21545" lon="-3.065">
        <ele>200.097656</ele>
        <time>2020-07-25T09:15:42.000Z</time>
      </trkpt>
      <trkpt lat="48.21552" lon="-3.06512">
        <ele>201.5</ele>
        <time>2020-07-25T09:15:47.000Z</time>
      </trkpt>
      <trkpt lat="48.21559" lon="-3.06523">
        <ele>202</ele>
        <time>2020-07-25T09:15:52.000Z</time>
      </trkpt>
      <trkpt lat="48.21565" lon="-3.06534">
        <ele>203</ele>
        <time>2020-07-25T09:15:55.000Z</time>
      </trkpt>
      <trkpt lat="48.21577" lon="-3.06558">
        <ele>202.898438</ele>
        <time>2020-07-25T09:16:02.000Z</time>
      </trkpt>
      <trkpt lat="48.21591" lon="-3.0658">
        <ele>201.199219</ele>
        <time>2020-07-25T09:16:09.000Z</time>
      </trkpt>
      <trkpt lat="48.216" lon="-3.06589">
        <ele>199.296875</ele>
        <time>2020-07-25T09:16:12.000Z</time>
      </trkpt>
      <trkpt lat="48.2161" lon="-3.06599">
        <ele>198.296875</ele>
        <time>2020-07-25T09:16:15.000Z</time>
      </trkpt>
      <trkpt lat="48.21623" lon="-3.06618">
        <ele>195.898438</ele>
        <time>2020-07-25T09:16:19.000Z</time>
      </trkpt>
      <trkpt lat="48.21753" lon="-3.068">
        <ele>204.296875</ele>
        <time>2020-07-25T09:16:59.000Z</time>
      </trkpt>
      <trkpt lat="48.21762" lon="-3.06815">
        <ele>204.398438</ele>
        <time>2020-07-25T09:17:02.000Z</time>
      </trkpt>
      <trkpt lat="48.21793" lon="-3.0687">
        <ele>205.296875</ele>
        <time>2020-07-25T09:17:13.000Z</time>
      </trkpt>
      <trkpt lat="48.21805" lon="-3.06897">
        <ele>215.402344</ele>
        <time>2020-07-25T09:17:18.000Z</time>
      </trkpt>
      <trkpt lat="48.21796" lon="-3.06893">
        <ele>219.5</ele>
        <time>2020-07-25T09:19:27.000Z</time>
      </trkpt>
      <trkpt lat="48.21799" lon="-3.06908">
        <ele>218.898438</ele>
        <time>2020-07-25T09:20:01.000Z</time>
      </trkpt>
      <trkpt lat="48.21805" lon="-3.06921">
        <ele>218.796875</ele>
        <time>2020-07-25T09:20:04.000Z</time>
      </trkpt>
      <trkpt lat="48.21817" lon="-3.06949">
        <ele>217.796875</ele>
        <time>2020-07-25T09:20:10.000Z</time>
      </trkpt>
      <trkpt lat="48.21824" lon="-3.06965">
        <ele>216.699219</ele>
        <time>2020-07-25T09:20:13.000Z</time>
      </trkpt>
      <trkpt lat="48.21835" lon="-3.07">
        <ele>214.5</ele>
        <time>2020-07-25T09:20:19.000Z</time>
      </trkpt>
      <trkpt lat="48.21839" lon="-3.07012">
        <ele>213.199219</ele>
        <time>2020-07-25T09:20:21.000Z</time>
      </trkpt>
      <trkpt lat="48.21843" lon="-3.0703">
        <ele>211.199219</ele>
        <time>2020-07-25T09:20:24.000Z</time>
      </trkpt>
      <trkpt lat="48.2185" lon="-3.07065">
        <ele>206.597656</ele>
        <time>2020-07-25T09:20:30.000Z</time>
      </trkpt>
      <trkpt lat="48.21852" lon="-3.07082">
        <ele>205.5</ele>
        <time>2020-07-25T09:20:33.000Z</time>
      </trkpt>
      <trkpt lat="48.21856" lon="-3.07118">
        <ele>202.097656</ele>
        <time>2020-07-25T09:20:39.000Z</time>
      </trkpt>
      <trkpt lat="48.21864" lon="-3.07164">
        <ele>195.199219</ele>
        <time>2020-07-25T09:20:48.000Z</time>
      </trkpt>
      <trkpt lat="48.21865" lon="-3.07181">
        <ele>193.898438</ele>
        <time>2020-07-25T09:20:51.000Z</time>
      </trkpt>
      <trkpt lat="48.21863" lon="-3.07201">
        <ele>195.097656</ele>
        <time>2020-07-25T09:20:54.000Z</time>
      </trkpt>
      <trkpt lat="48.21852" lon="-3.07358">
        <ele>205.699219</ele>
        <time>2020-07-25T09:21:21.000Z</time>
      </trkpt>
      <trkpt lat="48.21849" lon="-3.07455">
        <ele>205.097656</ele>
        <time>2020-07-25T09:21:39.000Z</time>
      </trkpt>
      <trkpt lat="48.2185" lon="-3.07472">
        <ele>204</ele>
        <time>2020-07-25T09:21:42.000Z</time>
      </trkpt>
      <trkpt lat="48.21849" lon="-3.07526">
        <ele>202.898438</ele>
        <time>2020-07-25T09:21:51.000Z</time>
      </trkpt>
      <trkpt lat="48.21853" lon="-3.07602">
        <ele>204.597656</ele>
        <time>2020-07-25T09:22:07.000Z</time>
      </trkpt>
      <trkpt lat="48.21856" lon="-3.07633">
        <ele>206.398438</ele>
        <time>2020-07-25T09:22:13.000Z</time>
      </trkpt>
      <trkpt lat="48.21859" lon="-3.07647">
        <ele>206.898438</ele>
        <time>2020-07-25T09:22:16.000Z</time>
      </trkpt>
      <trkpt lat="48.21908" lon="-3.07945">
        <ele>205.097656</ele>
        <time>2020-07-25T09:23:02.000Z</time>
      </trkpt>
      <trkpt lat="48.21911" lon="-3.07981">
        <ele>205.398438</ele>
        <time>2020-07-25T09:23:08.000Z</time>
      </trkpt>
      <trkpt lat="48.21915" lon="-3.08045">
        <ele>205.898438</ele>
        <time>2020-07-25T09:23:20.000Z</time>
      </trkpt>
      <trkpt lat="48.21915" lon="-3.08062">
        <ele>206.5</ele>
        <time>2020-07-25T09:23:23.000Z</time>
      </trkpt>
      <trkpt lat="48.21914" lon="-3.08128">
        <ele>203.597656</ele>
        <time>2020-07-25T09:23:35.000Z</time>
      </trkpt>
      <trkpt lat="48.21913" lon="-3.08146">
        <ele>203.597656</ele>
        <time>2020-07-25T09:23:38.000Z</time>
      </trkpt>
      <trkpt lat="48.21912" lon="-3.08179">
        <ele>203.699219</ele>
        <time>2020-07-25T09:23:44.000Z</time>
      </trkpt>
      <trkpt lat="48.2191" lon="-3.08194">
        <ele>204.199219</ele>
        <time>2020-07-25T09:23:47.000Z</time>
      </trkpt>
      <trkpt lat="48.21903" lon="-3.08239">
        <ele>207.898438</ele>
        <time>2020-07-25T09:23:56.000Z</time>
      </trkpt>
      <trkpt lat="48.219" lon="-3.08255">
        <ele>209.296875</ele>
        <time>2020-07-25T09:23:59.000Z</time>
      </trkpt>
      <trkpt lat="48.21878" lon="-3.08345">
        <ele>210</ele>
        <time>2020-07-25T09:24:20.000Z</time>
      </trkpt>
      <trkpt lat="48.21861" lon="-3.08399">
        <ele>210</ele>
        <time>2020-07-25T09:24:32.000Z</time>
      </trkpt>
      <trkpt lat="48.21834" lon="-3.08481">
        <ele>209.796875</ele>
        <time>2020-07-25T09:24:51.000Z</time>
      </trkpt>
      <trkpt lat="48.21828" lon="-3.08496">
        <ele>209.5</ele>
        <time>2020-07-25T09:24:55.000Z</time>
      </trkpt>
      <trkpt lat="48.218" lon="-3.08583">
        <ele>208.796875</ele>
        <time>2020-07-25T09:25:19.000Z</time>
      </trkpt>
      <trkpt lat="48.21794" lon="-3.08598">
        <ele>209</ele>
        <time>2020-07-25T09:25:23.000Z</time>
      </trkpt>
      <trkpt lat="48.2179" lon="-3.08612">
        <ele>208.898438</ele>
        <time>2020-07-25T09:25:27.000Z</time>
      </trkpt>
      <trkpt lat="48.21758" lon="-3.08715">
        <ele>205.699219</ele>
        <time>2020-07-25T09:25:49.000Z</time>
      </trkpt>
      <trkpt lat="48.21756" lon="-3.0873">
        <ele>205.199219</ele>
        <time>2020-07-25T09:25:52.000Z</time>
      </trkpt>
      <trkpt lat="48.2175" lon="-3.08774">
        <ele>204.796875</ele>
        <time>2020-07-25T09:26:01.000Z</time>
      </trkpt>
      <trkpt lat="48.21747" lon="-3.0881">
        <ele>205.597656</ele>
        <time>2020-07-25T09:26:07.000Z</time>
      </trkpt>
      <trkpt lat="48.21744" lon="-3.08861">
        <ele>205.699219</ele>
        <time>2020-07-25T09:26:16.000Z</time>
      </trkpt>
      <trkpt lat="48.21744" lon="-3.08879">
        <ele>205.5</ele>
        <time>2020-07-25T09:26:19.000Z</time>
      </trkpt>
      <trkpt lat="48.21745" lon="-3.08896">
        <ele>204.597656</ele>
        <time>2020-07-25T09:26:22.000Z</time>
      </trkpt>
      <trkpt lat="48.21749" lon="-3.08931">
        <ele>201.097656</ele>
        <time>2020-07-25T09:26:28.000Z</time>
      </trkpt>
      <trkpt lat="48.21753" lon="-3.08969">
        <ele>198.199219</ele>
        <time>2020-07-25T09:26:34.000Z</time>
      </trkpt>
      <trkpt lat="48.21756" lon="-3.08987">
        <ele>197.699219</ele>
        <time>2020-07-25T09:26:37.000Z</time>
      </trkpt>
      <trkpt lat="48.21798" lon="-3.09204">
        <ele>186.296875</ele>
        <time>2020-07-25T09:27:13.000Z</time>
      </trkpt>
      <trkpt lat="48.21802" lon="-3.09222">
        <ele>184.898438</ele>
        <time>2020-07-25T09:27:16.000Z</time>
      </trkpt>
      <trkpt lat="48.21804" lon="-3.09237">
        <ele>184</ele>
        <time>2020-07-25T09:27:18.000Z</time>
      </trkpt>
      <trkpt lat="48.21813" lon="-3.09304">
        <ele>183.097656</ele>
        <time>2020-07-25T09:27:28.000Z</time>
      </trkpt>
      <trkpt lat="48.21814" lon="-3.09334">
        <ele>183.898438</ele>
        <time>2020-07-25T09:27:32.000Z</time>
      </trkpt>
      <trkpt lat="48.21818" lon="-3.09411">
        <ele>184.699219</ele>
        <time>2020-07-25T09:27:43.000Z</time>
      </trkpt>
      <trkpt lat="48.21817" lon="-3.09431">
        <ele>185.597656</ele>
        <time>2020-07-25T09:27:46.000Z</time>
      </trkpt>
      <trkpt lat="48.21811" lon="-3.09506">
        <ele>189.296875</ele>
        <time>2020-07-25T09:27:58.000Z</time>
      </trkpt>
      <trkpt lat="48.21807" lon="-3.09535">
        <ele>190.097656</ele>
        <time>2020-07-25T09:28:02.000Z</time>
      </trkpt>
      <trkpt lat="48.21804" lon="-3.0955">
        <ele>190.097656</ele>
        <time>2020-07-25T09:28:04.000Z</time>
      </trkpt>
      <trkpt lat="48.2178" lon="-3.09653">
        <ele>190.699219</ele>
        <time>2020-07-25T09:28:18.000Z</time>
      </trkpt>
      <trkpt lat="48.21775" lon="-3.09668">
        <ele>190.898438</ele>
        <time>2020-07-25T09:28:20.000Z</time>
      </trkpt>
      <trkpt lat="48.21572" lon="-3.103">
        <ele>192</ele>
        <time>2020-07-25T09:29:51.000Z</time>
      </trkpt>
      <trkpt lat="48.21562" lon="-3.10326">
        <ele>192.597656</ele>
        <time>2020-07-25T09:29:58.000Z</time>
      </trkpt>
      <trkpt lat="48.21545" lon="-3.10365">
        <ele>194.398438</ele>
        <time>2020-07-25T09:30:13.000Z</time>
      </trkpt>
      <trkpt lat="48.21526" lon="-3.10401">
        <ele>192.5</ele>
        <time>2020-07-25T09:30:23.000Z</time>
      </trkpt>
      <trkpt lat="48.21509" lon="-3.10427">
        <ele>191.699219</ele>
        <time>2020-07-25T09:30:29.000Z</time>
      </trkpt>
      <trkpt lat="48.21495" lon="-3.10454">
        <ele>190.796875</ele>
        <time>2020-07-25T09:30:35.000Z</time>
      </trkpt>
      <trkpt lat="48.21385" lon="-3.10649">
        <ele>191.199219</ele>
        <time>2020-07-25T09:31:18.000Z</time>
      </trkpt>
      <trkpt lat="48.21371" lon="-3.10678">
        <ele>190.796875</ele>
        <time>2020-07-25T09:31:25.000Z</time>
      </trkpt>
      <trkpt lat="48.21364" lon="-3.10687">
        <ele>190.5</ele>
        <time>2020-07-25T09:31:27.000Z</time>
      </trkpt>
      <trkpt lat="48.21358" lon="-3.10698">
        <ele>190.097656</ele>
        <time>2020-07-25T09:31:29.000Z</time>
      </trkpt>
      <trkpt lat="48.21353" lon="-3.10717">
        <ele>189.699219</ele>
        <time>2020-07-25T09:31:32.000Z</time>
      </trkpt>
      <trkpt lat="48.2135" lon="-3.1073">
        <ele>189.296875</ele>
        <time>2020-07-25T09:31:34.000Z</time>
      </trkpt>
      <trkpt lat="48.21348" lon="-3.10743">
        <ele>188.796875</ele>
        <time>2020-07-25T09:31:36.000Z</time>
      </trkpt>
      <trkpt lat="48.21339" lon="-3.10819">
        <ele>186.5</ele>
        <time>2020-07-25T09:31:46.000Z</time>
      </trkpt>
      <trkpt lat="48.21334" lon="-3.10866">
        <ele>185.199219</ele>
        <time>2020-07-25T09:31:53.000Z</time>
      </trkpt>
      <trkpt lat="48.21331" lon="-3.10881">
        <ele>184.398438</ele>
        <time>2020-07-25T09:31:56.000Z</time>
      </trkpt>
      <trkpt lat="48.21333" lon="-3.10895">
        <ele>182.5</ele>
        <time>2020-07-25T09:31:59.000Z</time>
      </trkpt>
      <trkpt lat="48.21338" lon="-3.10907">
        <ele>181.597656</ele>
        <time>2020-07-25T09:32:02.000Z</time>
      </trkpt>
      <trkpt lat="48.21344" lon="-3.10916">
        <ele>181.097656</ele>
        <time>2020-07-25T09:32:05.000Z</time>
      </trkpt>
      <trkpt lat="48.21353" lon="-3.10925">
        <ele>180.597656</ele>
        <time>2020-07-25T09:32:10.000Z</time>
      </trkpt>
      <trkpt lat="48.21377" lon="-3.10955">
        <ele>177.398438</ele>
        <time>2020-07-25T09:32:21.000Z</time>
      </trkpt>
      <trkpt lat="48.21382" lon="-3.10968">
        <ele>177.097656</ele>
        <time>2020-07-25T09:32:29.000Z</time>
      </trkpt>
      <trkpt lat="48.21393" lon="-3.10977">
        <ele>173.296875</ele>
        <time>2020-07-25T09:32:33.000Z</time>
      </trkpt>
      <trkpt lat="48.21402" lon="-3.10988">
        <ele>170.296875</ele>
        <time>2020-07-25T09:32:37.000Z</time>
      </trkpt>
      <trkpt lat="48.21407" lon="-3.11004">
        <ele>169.398438</ele>
        <time>2020-07-25T09:32:41.000Z</time>
      </trkpt>
      <trkpt lat="48.21412" lon="-3.11015">
        <ele>168.5</ele>
        <time>2020-07-25T09:32:44.000Z</time>
      </trkpt>
      <trkpt lat="48.21436" lon="-3.11067">
        <ele>167</ele>
        <time>2020-07-25T09:32:55.000Z</time>
      </trkpt>
      <trkpt lat="48.21443" lon="-3.11078">
        <ele>167</ele>
        <time>2020-07-25T09:32:57.000Z</time>
      </trkpt>
      <trkpt lat="48.21469" lon="-3.11125">
        <ele>168.5</ele>
        <time>2020-07-25T09:33:05.000Z</time>
      </trkpt>
      <trkpt lat="48.21474" lon="-3.11138">
        <ele>168.5</ele>
        <time>2020-07-25T09:33:07.000Z</time>
      </trkpt>
      <trkpt lat="48.21483" lon="-3.11165">
        <ele>169.199219</ele>
        <time>2020-07-25T09:33:11.000Z</time>
      </trkpt>
      <trkpt lat="48.21487" lon="-3.1118">
        <ele>169.199219</ele>
        <time>2020-07-25T09:33:13.000Z</time>
      </trkpt>
      <trkpt lat="48.2149" lon="-3.11193">
        <ele>168.796875</ele>
        <time>2020-07-25T09:33:15.000Z</time>
      </trkpt>
      <trkpt lat="48.21494" lon="-3.1121">
        <ele>169.847656</ele>
        <time>2020-07-25T09:33:18.000Z</time>
      </trkpt>
      <trkpt lat="48.21498" lon="-3.11222">
        <ele>176.398438</ele>
        <time>2020-07-25T09:33:26.000Z</time>
      </trkpt>
      <trkpt lat="48.215" lon="-3.11209">
        <ele>177.398438</ele>
        <time>2020-07-25T09:34:19.000Z</time>
      </trkpt>
      <trkpt lat="48.21497" lon="-3.11196">
        <ele>178.898438</ele>
        <time>2020-07-25T09:34:23.000Z</time>
      </trkpt>
      <trkpt lat="48.2149" lon="-3.11169">
        <ele>181.398438</ele>
        <time>2020-07-25T09:34:29.000Z</time>
      </trkpt>
      <trkpt lat="48.21485" lon="-3.11155">
        <ele>183</ele>
        <time>2020-07-25T09:34:32.000Z</time>
      </trkpt>
      <trkpt lat="48.2148" lon="-3.11143">
        <ele>183.796875</ele>
        <time>2020-07-25T09:34:35.000Z</time>
      </trkpt>
      <trkpt lat="48.21468" lon="-3.1112">
        <ele>182.5</ele>
        <time>2020-07-25T09:34:41.000Z</time>
      </trkpt>
      <trkpt lat="48.21437" lon="-3.11064">
        <ele>179.5</ele>
        <time>2020-07-25T09:34:56.000Z</time>
      </trkpt>
      <trkpt lat="48.21378" lon="-3.10959">
        <ele>175.597656</ele>
        <time>2020-07-25T09:35:24.000Z</time>
      </trkpt>
      <trkpt lat="48.2137" lon="-3.10949">
        <ele>176.597656</ele>
        <time>2020-07-25T09:35:28.000Z</time>
      </trkpt>
      <trkpt lat="48.21345" lon="-3.10917">
        <ele>180.199219</ele>
        <time>2020-07-25T09:35:39.000Z</time>
      </trkpt>
      <trkpt lat="48.21338" lon="-3.10909">
        <ele>181.398438</ele>
        <time>2020-07-25T09:35:42.000Z</time>
      </trkpt>
      <trkpt lat="48.21329" lon="-3.10904">
        <ele>181.597656</ele>
        <time>2020-07-25T09:35:46.000Z</time>
      </trkpt>
      <trkpt lat="48.21323" lon="-3.10914">
        <ele>181.398438</ele>
        <time>2020-07-25T09:35:50.000Z</time>
      </trkpt>
      <trkpt lat="48.21317" lon="-3.10929">
        <ele>181.199219</ele>
        <time>2020-07-25T09:35:54.000Z</time>
      </trkpt>
      <trkpt lat="48.21299" lon="-3.10974">
        <ele>179.898438</ele>
        <time>2020-07-25T09:36:03.000Z</time>
      </trkpt>
      <trkpt lat="48.21293" lon="-3.10987">
        <ele>179.898438</ele>
        <time>2020-07-25T09:36:06.000Z</time>
      </trkpt>
      <trkpt lat="48.21286" lon="-3.11">
        <ele>180</ele>
        <time>2020-07-25T09:36:10.000Z</time>
      </trkpt>
      <trkpt lat="48.21279" lon="-3.11011">
        <ele>180.296875</ele>
        <time>2020-07-25T09:36:13.000Z</time>
      </trkpt>
      <trkpt lat="48.21269" lon="-3.11017">
        <ele>180.898438</ele>
        <time>2020-07-25T09:36:16.000Z</time>
      </trkpt>
      <trkpt lat="48.21259" lon="-3.11015">
        <ele>181.5</ele>
        <time>2020-07-25T09:36:19.000Z</time>
      </trkpt>
      <trkpt lat="48.21247" lon="-3.11012">
        <ele>182.097656</ele>
        <time>2020-07-25T09:36:23.000Z</time>
      </trkpt>
      <trkpt lat="48.21215" lon="-3.11004">
        <ele>185.199219</ele>
        <time>2020-07-25T09:36:34.000Z</time>
      </trkpt>
      <trkpt lat="48.21196" lon="-3.11003">
        <ele>189.5</ele>
        <time>2020-07-25T09:36:40.000Z</time>
      </trkpt>
      <trkpt lat="48.21187" lon="-3.11005">
        <ele>191.796875</ele>
        <time>2020-07-25T09:36:43.000Z</time>
      </trkpt>
      <trkpt lat="48.21177" lon="-3.11009">
        <ele>193.296875</ele>
        <time>2020-07-25T09:36:46.000Z</time>
      </trkpt>
      <trkpt lat="48.21157" lon="-3.1102">
        <ele>194.699219</ele>
        <time>2020-07-25T09:36:52.000Z</time>
      </trkpt>
      <trkpt lat="48.20895" lon="-3.11177">
        <ele>192.398438</ele>
        <time>2020-07-25T09:37:37.000Z</time>
      </trkpt>
      <trkpt lat="48.20886" lon="-3.1118">
        <ele>191.398438</ele>
        <time>2020-07-25T09:37:38.000Z</time>
      </trkpt>
      <trkpt lat="48.20857" lon="-3.11187">
        <ele>187.398438</ele>
        <time>2020-07-25T09:37:41.000Z</time>
      </trkpt>
      <trkpt lat="48.2084" lon="-3.11191">
        <ele>185.699219</ele>
        <time>2020-07-25T09:37:43.000Z</time>
      </trkpt>
      <trkpt lat="48.20824" lon="-3.1119">
        <ele>184.199219</ele>
        <time>2020-07-25T09:37:45.000Z</time>
      </trkpt>
      <trkpt lat="48.20811" lon="-3.1118">
        <ele>182.597656</ele>
        <time>2020-07-25T09:37:47.000Z</time>
      </trkpt>
      <trkpt lat="48.20802" lon="-3.11163">
        <ele>180.898438</ele>
        <time>2020-07-25T09:37:49.000Z</time>
      </trkpt>
      <trkpt lat="48.20801" lon="-3.11144">
        <ele>178.296875</ele>
        <time>2020-07-25T09:37:51.000Z</time>
      </trkpt>
      <trkpt lat="48.20806" lon="-3.11127">
        <ele>175.796875</ele>
        <time>2020-07-25T09:37:53.000Z</time>
      </trkpt>
      <trkpt lat="48.20817" lon="-3.11112">
        <ele>173.296875</ele>
        <time>2020-07-25T09:37:55.000Z</time>
      </trkpt>
      <trkpt lat="48.20831" lon="-3.111">
        <ele>170.5</ele>
        <time>2020-07-25T09:37:57.000Z</time>
      </trkpt>
      <trkpt lat="48.20873" lon="-3.11064">
        <ele>164.5</ele>
        <time>2020-07-25T09:38:03.000Z</time>
      </trkpt>
      <trkpt lat="48.20884" lon="-3.11049">
        <ele>162.898438</ele>
        <time>2020-07-25T09:38:05.000Z</time>
      </trkpt>
      <trkpt lat="48.20892" lon="-3.11032">
        <ele>161.398438</ele>
        <time>2020-07-25T09:38:07.000Z</time>
      </trkpt>
      <trkpt lat="48.20894" lon="-3.11013">
        <ele>159.699219</ele>
        <time>2020-07-25T09:38:09.000Z</time>
      </trkpt>
      <trkpt lat="48.20889" lon="-3.10996">
        <ele>157.898438</ele>
        <time>2020-07-25T09:38:11.000Z</time>
      </trkpt>
      <trkpt lat="48.20878" lon="-3.10985">
        <ele>156</ele>
        <time>2020-07-25T09:38:13.000Z</time>
      </trkpt>
      <trkpt lat="48.20864" lon="-3.10981">
        <ele>154.199219</ele>
        <time>2020-07-25T09:38:15.000Z</time>
      </trkpt>
      <trkpt lat="48.20851" lon="-3.10979">
        <ele>152.597656</ele>
        <time>2020-07-25T09:38:17.000Z</time>
      </trkpt>
      <trkpt lat="48.2083" lon="-3.10977">
        <ele>149.898438</ele>
        <time>2020-07-25T09:38:21.000Z</time>
      </trkpt>
      <trkpt lat="48.20818" lon="-3.10979">
        <ele>149.5</ele>
        <time>2020-07-25T09:38:24.000Z</time>
      </trkpt>
      <trkpt lat="48.20808" lon="-3.10983">
        <ele>149.5</ele>
        <time>2020-07-25T09:38:28.000Z</time>
      </trkpt>
      <trkpt lat="48.20799" lon="-3.10988">
        <ele>149.5</ele>
        <time>2020-07-25T09:38:32.000Z</time>
      </trkpt>
      <trkpt lat="48.20789" lon="-3.10989">
        <ele>148.796875</ele>
        <time>2020-07-25T09:38:35.000Z</time>
      </trkpt>
      <trkpt lat="48.20779" lon="-3.10989">
        <ele>147.597656</ele>
        <time>2020-07-25T09:38:38.000Z</time>
      </trkpt>
      <trkpt lat="48.2077" lon="-3.10992">
        <ele>146</ele>
        <time>2020-07-25T09:38:41.000Z</time>
      </trkpt>
      <trkpt lat="48.20761" lon="-3.10992">
        <ele>143.699219</ele>
        <time>2020-07-25T09:38:45.000Z</time>
      </trkpt>
      <trkpt lat="48.20754" lon="-3.1098">
        <ele>142.296875</ele>
        <time>2020-07-25T09:38:50.000Z</time>
      </trkpt>
      <trkpt lat="48.20743" lon="-3.10976">
        <ele>141.699219</ele>
        <time>2020-07-25T09:38:55.000Z</time>
      </trkpt>
      <trkpt lat="48.20735" lon="-3.10981">
        <ele>141.199219</ele>
        <time>2020-07-25T09:38:59.000Z</time>
      </trkpt>
      <trkpt lat="48.20714" lon="-3.1099">
        <ele>141.597656</ele>
        <time>2020-07-25T09:39:09.000Z</time>
      </trkpt>
      <trkpt lat="48.20705" lon="-3.10996">
        <ele>141.898438</ele>
        <time>2020-07-25T09:39:13.000Z</time>
      </trkpt>
      <trkpt lat="48.20696" lon="-3.11003">
        <ele>142</ele>
        <time>2020-07-25T09:39:17.000Z</time>
      </trkpt>
      <trkpt lat="48.20686" lon="-3.11007">
        <ele>142.296875</ele>
        <time>2020-07-25T09:39:21.000Z</time>
      </trkpt>
      <trkpt lat="48.20676" lon="-3.11014">
        <ele>142.699219</ele>
        <time>2020-07-25T09:39:25.000Z</time>
      </trkpt>
      <trkpt lat="48.20666" lon="-3.11018">
        <ele>143.199219</ele>
        <time>2020-07-25T09:39:28.000Z</time>
      </trkpt>
      <trkpt lat="48.20637" lon="-3.1103">
        <ele>145.296875</ele>
        <time>2020-07-25T09:39:37.000Z</time>
      </trkpt>
      <trkpt lat="48.20626" lon="-3.11032">
        <ele>146</ele>
        <time>2020-07-25T09:39:40.000Z</time>
      </trkpt>
      <trkpt lat="48.20603" lon="-3.11037">
        <ele>148.097656</ele>
        <time>2020-07-25T09:39:46.000Z</time>
      </trkpt>
      <trkpt lat="48.20594" lon="-3.11042">
        <ele>149.296875</ele>
        <time>2020-07-25T09:39:49.000Z</time>
      </trkpt>
      <trkpt lat="48.20585" lon="-3.11052">
        <ele>150.097656</ele>
        <time>2020-07-25T09:39:52.000Z</time>
      </trkpt>
      <trkpt lat="48.20579" lon="-3.11065">
        <ele>149.898438</ele>
        <time>2020-07-25T09:39:55.000Z</time>
      </trkpt>
      <trkpt lat="48.20576" lon="-3.1108">
        <ele>149.398438</ele>
        <time>2020-07-25T09:39:58.000Z</time>
      </trkpt>
      <trkpt lat="48.20575" lon="-3.11095">
        <ele>149</ele>
        <time>2020-07-25T09:40:01.000Z</time>
      </trkpt>
      <trkpt lat="48.20573" lon="-3.11159">
        <ele>146.796875</ele>
        <time>2020-07-25T09:40:13.000Z</time>
      </trkpt>
      <trkpt lat="48.20573" lon="-3.11176">
        <ele>146.296875</ele>
        <time>2020-07-25T09:40:16.000Z</time>
      </trkpt>
      <trkpt lat="48.20574" lon="-3.11193">
        <ele>145.699219</ele>
        <time>2020-07-25T09:40:19.000Z</time>
      </trkpt>
      <trkpt lat="48.20578" lon="-3.11211">
        <ele>145.296875</ele>
        <time>2020-07-25T09:40:22.000Z</time>
      </trkpt>
      <trkpt lat="48.20592" lon="-3.11278">
        <ele>144.296875</ele>
        <time>2020-07-25T09:40:34.000Z</time>
      </trkpt>
      <trkpt lat="48.20597" lon="-3.11293">
        <ele>144</ele>
        <time>2020-07-25T09:40:37.000Z</time>
      </trkpt>
      <trkpt lat="48.20604" lon="-3.11308">
        <ele>143.597656</ele>
        <time>2020-07-25T09:40:40.000Z</time>
      </trkpt>
      <trkpt lat="48.20611" lon="-3.11322">
        <ele>143</ele>
        <time>2020-07-25T09:40:43.000Z</time>
      </trkpt>
      <trkpt lat="48.20619" lon="-3.11334">
        <ele>142.296875</ele>
        <time>2020-07-25T09:40:46.000Z</time>
      </trkpt>
      <trkpt lat="48.20624" lon="-3.11346">
        <ele>141</ele>
        <time>2020-07-25T09:40:49.000Z</time>
      </trkpt>
      <trkpt lat="48.2063" lon="-3.11358">
        <ele>139.097656</ele>
        <time>2020-07-25T09:40:52.000Z</time>
      </trkpt>
      <trkpt lat="48.2065" lon="-3.11393">
        <ele>138</ele>
        <time>2020-07-25T09:41:01.000Z</time>
      </trkpt>
      <trkpt lat="48.20685" lon="-3.11452">
        <ele>134.699219</ele>
        <time>2020-07-25T09:41:17.000Z</time>
      </trkpt>
      <trkpt lat="48.20708" lon="-3.11489">
        <ele>134.097656</ele>
        <time>2020-07-25T09:41:26.000Z</time>
      </trkpt>
      <trkpt lat="48.20717" lon="-3.115">
        <ele>134</ele>
        <time>2020-07-25T09:41:29.000Z</time>
      </trkpt>
      <trkpt lat="48.20752" lon="-3.11542">
        <ele>134.097656</ele>
        <time>2020-07-25T09:41:41.000Z</time>
      </trkpt>
      <trkpt lat="48.2076" lon="-3.11551">
        <ele>133.796875</ele>
        <time>2020-07-25T09:41:44.000Z</time>
      </trkpt>
      <trkpt lat="48.20769" lon="-3.11559">
        <ele>132.71875</ele>
        <time>2020-07-25T09:41:48.000Z</time>
      </trkpt>
      <trkpt lat="48.20778" lon="-3.11561">
        <ele>136.097656</ele>
        <time>2020-07-25T09:43:14.000Z</time>
      </trkpt>
      <trkpt lat="48.20772" lon="-3.11551">
        <ele>135.796875</ele>
        <time>2020-07-25T09:43:46.000Z</time>
      </trkpt>
      <trkpt lat="48.20763" lon="-3.11544">
        <ele>135.699219</ele>
        <time>2020-07-25T09:43:49.000Z</time>
      </trkpt>
      <trkpt lat="48.20733" lon="-3.11518">
        <ele>135.5</ele>
        <time>2020-07-25T09:43:58.000Z</time>
      </trkpt>
      <trkpt lat="48.20713" lon="-3.11499">
        <ele>135.398438</ele>
        <time>2020-07-25T09:44:04.000Z</time>
      </trkpt>
      <trkpt lat="48.20704" lon="-3.11486">
        <ele>135.199219</ele>
        <time>2020-07-25T09:44:07.000Z</time>
      </trkpt>
      <trkpt lat="48.2071" lon="-3.11498">
        <ele>134.597656</ele>
        <time>2020-07-25T09:44:46.000Z</time>
      </trkpt>
      <trkpt lat="48.20716" lon="-3.11507">
        <ele>133.898438</ele>
        <time>2020-07-25T09:44:49.000Z</time>
      </trkpt>
      <trkpt lat="48.20732" lon="-3.11524">
        <ele>132.398438</ele>
        <time>2020-07-25T09:44:55.000Z</time>
      </trkpt>
      <trkpt lat="48.2076" lon="-3.11552">
        <ele>130.199219</ele>
        <time>2020-07-25T09:45:04.000Z</time>
      </trkpt>
      <trkpt lat="48.2077" lon="-3.1156">
        <ele>129.597656</ele>
        <time>2020-07-25T09:45:08.000Z</time>
      </trkpt>
      <trkpt lat="48.20781" lon="-3.11567">
        <ele>129.796875</ele>
        <time>2020-07-25T09:45:12.000Z</time>
      </trkpt>
      <trkpt lat="48.20802" lon="-3.11581">
        <ele>130.5</ele>
        <time>2020-07-25T09:45:18.000Z</time>
      </trkpt>
      <trkpt lat="48.20825" lon="-3.11592">
        <ele>130.5</ele>
        <time>2020-07-25T09:45:24.000Z</time>
      </trkpt>
      <trkpt lat="48.20848" lon="-3.11602">
        <ele>131.898438</ele>
        <time>2020-07-25T09:45:30.000Z</time>
      </trkpt>
      <trkpt lat="48.20858" lon="-3.11606">
        <ele>133</ele>
        <time>2020-07-25T09:45:33.000Z</time>
      </trkpt>
      <trkpt lat="48.20868" lon="-3.11607">
        <ele>133.898438</ele>
        <time>2020-07-25T09:45:36.000Z</time>
      </trkpt>
      <trkpt lat="48.2088" lon="-3.11608">
        <ele>135</ele>
        <time>2020-07-25T09:45:39.000Z</time>
      </trkpt>
      <trkpt lat="48.20892" lon="-3.11607">
        <ele>135.898438</ele>
        <time>2020-07-25T09:45:42.000Z</time>
      </trkpt>
      <trkpt lat="48.20904" lon="-3.11603">
        <ele>136.398438</ele>
        <time>2020-07-25T09:45:45.000Z</time>
      </trkpt>
      <trkpt lat="48.20914" lon="-3.11597">
        <ele>136.597656</ele>
        <time>2020-07-25T09:45:48.000Z</time>
      </trkpt>
      <trkpt lat="48.20933" lon="-3.1158">
        <ele>136.796875</ele>
        <time>2020-07-25T09:45:54.000Z</time>
      </trkpt>
      <trkpt lat="48.20942" lon="-3.11576">
        <ele>137.5</ele>
        <time>2020-07-25T09:45:57.000Z</time>
      </trkpt>
      <trkpt lat="48.20951" lon="-3.11576">
        <ele>137.898438</ele>
        <time>2020-07-25T09:46:00.000Z</time>
      </trkpt>
      <trkpt lat="48.20962" lon="-3.1158">
        <ele>138.597656</ele>
        <time>2020-07-25T09:46:03.000Z</time>
      </trkpt>
      <trkpt lat="48.20974" lon="-3.11588">
        <ele>139.796875</ele>
        <time>2020-07-25T09:46:06.000Z</time>
      </trkpt>
      <trkpt lat="48.20983" lon="-3.11599">
        <ele>140.199219</ele>
        <time>2020-07-25T09:46:09.000Z</time>
      </trkpt>
      <trkpt lat="48.20993" lon="-3.11611">
        <ele>140</ele>
        <time>2020-07-25T09:46:12.000Z</time>
      </trkpt>
      <trkpt lat="48.21001" lon="-3.11624">
        <ele>138.597656</ele>
        <time>2020-07-25T09:46:15.000Z</time>
      </trkpt>
      <trkpt lat="48.21009" lon="-3.11638">
        <ele>137.5</ele>
        <time>2020-07-25T09:46:18.000Z</time>
      </trkpt>
      <trkpt lat="48.21016" lon="-3.11653">
        <ele>137.398438</ele>
        <time>2020-07-25T09:46:21.000Z</time>
      </trkpt>
      <trkpt lat="48.21041" lon="-3.11715">
        <ele>134.5</ele>
        <time>2020-07-25T09:46:33.000Z</time>
      </trkpt>
      <trkpt lat="48.21052" lon="-3.11743">
        <ele>133.296875</ele>
        <time>2020-07-25T09:46:39.000Z</time>
      </trkpt>
      <trkpt lat="48.21059" lon="-3.11756">
        <ele>133.199219</ele>
        <time>2020-07-25T09:46:42.000Z</time>
      </trkpt>
      <trkpt lat="48.21064" lon="-3.11771">
        <ele>132</ele>
        <time>2020-07-25T09:46:45.000Z</time>
      </trkpt>
      <trkpt lat="48.2107" lon="-3.11784">
        <ele>131</ele>
        <time>2020-07-25T09:46:48.000Z</time>
      </trkpt>
      <trkpt lat="48.21076" lon="-3.11795">
        <ele>129.597656</ele>
        <time>2020-07-25T09:46:51.000Z</time>
      </trkpt>
      <trkpt lat="48.21083" lon="-3.11806">
        <ele>130.5</ele>
        <time>2020-07-25T09:46:54.000Z</time>
      </trkpt>
      <trkpt lat="48.21087" lon="-3.11821">
        <ele>131.097656</ele>
        <time>2020-07-25T09:46:57.000Z</time>
      </trkpt>
      <trkpt lat="48.21089" lon="-3.1184">
        <ele>131.699219</ele>
        <time>2020-07-25T09:47:00.000Z</time>
      </trkpt>
      <trkpt lat="48.21092" lon="-3.11874">
        <ele>134.199219</ele>
        <time>2020-07-25T09:47:06.000Z</time>
      </trkpt>
      <trkpt lat="48.21094" lon="-3.11906">
        <ele>138.898438</ele>
        <time>2020-07-25T09:47:12.000Z</time>
      </trkpt>
      <trkpt lat="48.21096" lon="-3.11921">
        <ele>141.398438</ele>
        <time>2020-07-25T09:47:15.000Z</time>
      </trkpt>
      <trkpt lat="48.21098" lon="-3.11935">
        <ele>143.597656</ele>
        <time>2020-07-25T09:47:18.000Z</time>
      </trkpt>
      <trkpt lat="48.21095" lon="-3.11955">
        <ele>144.398438</ele>
        <time>2020-07-25T09:47:21.000Z</time>
      </trkpt>
      <trkpt lat="48.21084" lon="-3.12014">
        <ele>147.5</ele>
        <time>2020-07-25T09:47:29.000Z</time>
      </trkpt>
      <trkpt lat="48.21072" lon="-3.12139">
        <ele>146.296875</ele>
        <time>2020-07-25T09:47:46.000Z</time>
      </trkpt>
      <trkpt lat="48.21071" lon="-3.12155">
        <ele>145.898438</ele>
        <time>2020-07-25T09:47:48.000Z</time>
      </trkpt>
      <trkpt lat="48.21071" lon="-3.12188">
        <ele>146.097656</ele>
        <time>2020-07-25T09:47:53.000Z</time>
      </trkpt>
      <trkpt lat="48.21071" lon="-3.12205">
        <ele>147.5</ele>
        <time>2020-07-25T09:47:56.000Z</time>
      </trkpt>
      <trkpt lat="48.21075" lon="-3.12269">
        <ele>149.597656</ele>
        <time>2020-07-25T09:48:08.000Z</time>
      </trkpt>
      <trkpt lat="48.21074" lon="-3.12289">
        <ele>149.898438</ele>
        <time>2020-07-25T09:48:11.000Z</time>
      </trkpt>
      <trkpt lat="48.21073" lon="-3.12325">
        <ele>151.097656</ele>
        <time>2020-07-25T09:48:17.000Z</time>
      </trkpt>
      <trkpt lat="48.21071" lon="-3.12344">
        <ele>151</ele>
        <time>2020-07-25T09:48:20.000Z</time>
      </trkpt>
      <trkpt lat="48.21054" lon="-3.12486">
        <ele>147.5</ele>
        <time>2020-07-25T09:48:43.000Z</time>
      </trkpt>
      <trkpt lat="48.21052" lon="-3.12523">
        <ele>145.398438</ele>
        <time>2020-07-25T09:48:49.000Z</time>
      </trkpt>
      <trkpt lat="48.21053" lon="-3.12572">
        <ele>143.699219</ele>
        <time>2020-07-25T09:48:58.000Z</time>
      </trkpt>
      <trkpt lat="48.21053" lon="-3.12618">
        <ele>133.5</ele>
        <time>2020-07-25T09:49:08.000Z</time>
      </trkpt>
      <trkpt lat="48.2105" lon="-3.12636">
        <ele>133.199219</ele>
        <time>2020-07-25T09:51:32.000Z</time>
      </trkpt>
      <trkpt lat="48.21049" lon="-3.1265">
        <ele>133.097656</ele>
        <time>2020-07-25T09:51:37.000Z</time>
      </trkpt>
      <trkpt lat="48.2105" lon="-3.12665">
        <ele>133.097656</ele>
        <time>2020-07-25T09:51:41.000Z</time>
      </trkpt>
      <trkpt lat="48.21052" lon="-3.12697">
        <ele>133.199219</ele>
        <time>2020-07-25T09:51:48.000Z</time>
      </trkpt>
      <trkpt lat="48.21056" lon="-3.12711">
        <ele>133.199219</ele>
        <time>2020-07-25T09:51:51.000Z</time>
      </trkpt>
      <trkpt lat="48.21069" lon="-3.12766">
        <ele>133.398438</ele>
        <time>2020-07-25T09:52:56.000Z</time>
      </trkpt>
      <trkpt lat="48.2107" lon="-3.1278">
        <ele>133.5</ele>
        <time>2020-07-25T09:53:00.000Z</time>
      </trkpt>
      <trkpt lat="48.21075" lon="-3.12795">
        <ele>133.398438</ele>
        <time>2020-07-25T09:53:04.000Z</time>
      </trkpt>
      <trkpt lat="48.21079" lon="-3.12807">
        <ele>133.699219</ele>
        <time>2020-07-25T09:53:07.000Z</time>
      </trkpt>
      <trkpt lat="48.21082" lon="-3.12819">
        <ele>134.699219</ele>
        <time>2020-07-25T09:53:10.000Z</time>
      </trkpt>
      <trkpt lat="48.21085" lon="-3.12832">
        <ele>135.796875</ele>
        <time>2020-07-25T09:53:14.000Z</time>
      </trkpt>
      <trkpt lat="48.21092" lon="-3.12842">
        <ele>137.199219</ele>
        <time>2020-07-25T09:53:20.000Z</time>
      </trkpt>
      <trkpt lat="48.21102" lon="-3.12852">
        <ele>137.097656</ele>
        <time>2020-07-25T09:53:25.000Z</time>
      </trkpt>
      <trkpt lat="48.21111" lon="-3.12862">
        <ele>136.296875</ele>
        <time>2020-07-25T09:53:29.000Z</time>
      </trkpt>
      <trkpt lat="48.21141" lon="-3.12888">
        <ele>133.796875</ele>
        <time>2020-07-25T09:53:41.000Z</time>
      </trkpt>
      <trkpt lat="48.2115" lon="-3.12894">
        <ele>133.296875</ele>
        <time>2020-07-25T09:53:44.000Z</time>
      </trkpt>
      <trkpt lat="48.2116" lon="-3.129">
        <ele>133</ele>
        <time>2020-07-25T09:53:47.000Z</time>
      </trkpt>
      <trkpt lat="48.2117" lon="-3.12904">
        <ele>132.699219</ele>
        <time>2020-07-25T09:53:50.000Z</time>
      </trkpt>
      <trkpt lat="48.21181" lon="-3.12906">
        <ele>132.597656</ele>
        <time>2020-07-25T09:53:53.000Z</time>
      </trkpt>
      <trkpt lat="48.21191" lon="-3.12905">
        <ele>132.699219</ele>
        <time>2020-07-25T09:53:56.000Z</time>
      </trkpt>
      <trkpt lat="48.212" lon="-3.12907">
        <ele>132.699219</ele>
        <time>2020-07-25T09:53:59.000Z</time>
      </trkpt>
      <trkpt lat="48.21211" lon="-3.12912">
        <ele>132.398438</ele>
        <time>2020-07-25T09:54:03.000Z</time>
      </trkpt>
      <trkpt lat="48.21219" lon="-3.1292">
        <ele>131.597656</ele>
        <time>2020-07-25T09:54:07.000Z</time>
      </trkpt>
      <trkpt lat="48.21234" lon="-3.12937">
        <ele>132.097656</ele>
        <time>2020-07-25T09:54:17.000Z</time>
      </trkpt>
      <trkpt lat="48.21244" lon="-3.1293">
        <ele>132.097656</ele>
        <time>2020-07-25T09:54:27.000Z</time>
      </trkpt>
      <trkpt lat="48.21251" lon="-3.12919">
        <ele>132.097656</ele>
        <time>2020-07-25T09:54:31.000Z</time>
      </trkpt>
      <trkpt lat="48.21258" lon="-3.12905">
        <ele>132.398438</ele>
        <time>2020-07-25T09:54:35.000Z</time>
      </trkpt>
      <trkpt lat="48.21263" lon="-3.12892">
        <ele>132.898438</ele>
        <time>2020-07-25T09:54:39.000Z</time>
      </trkpt>
      <trkpt lat="48.21268" lon="-3.1288">
        <ele>135.597656</ele>
        <time>2020-07-25T09:54:45.000Z</time>
      </trkpt>
      <trkpt lat="48.21276" lon="-3.12875">
        <ele>135.296875</ele>
        <time>2020-07-25T09:57:47.000Z</time>
      </trkpt>
      <trkpt lat="48.21285" lon="-3.12864">
        <ele>134.796875</ele>
        <time>2020-07-25T09:57:52.000Z</time>
      </trkpt>
      <trkpt lat="48.21406" lon="-3.12718">
        <ele>135.5</ele>
        <time>2020-07-25T09:58:38.000Z</time>
      </trkpt>
      <trkpt lat="48.21464" lon="-3.12648">
        <ele>136.5</ele>
        <time>2020-07-25T09:58:59.000Z</time>
      </trkpt>
      <trkpt lat="48.21471" lon="-3.12637">
        <ele>136.5</ele>
        <time>2020-07-25T09:59:02.000Z</time>
      </trkpt>
      <trkpt lat="48.21473" lon="-3.12623">
        <ele>136.597656</ele>
        <time>2020-07-25T09:59:05.000Z</time>
      </trkpt>
      <trkpt lat="48.21472" lon="-3.12608">
        <ele>136.796875</ele>
        <time>2020-07-25T09:59:08.000Z</time>
      </trkpt>
      <trkpt lat="48.21436" lon="-3.12306">
        <ele>141.898438</ele>
        <time>2020-07-25T10:00:05.000Z</time>
      </trkpt>
      <trkpt lat="48.21388" lon="-3.12252">
        <ele>148.710938</ele>
        <time>2020-07-25T10:01:52.000Z</time>
      </trkpt>
      <trkpt lat="48.21388" lon="-3.12252">
        <ele>147.453125</ele>
        <time>2020-07-25T10:01:59.000Z</time>
      </trkpt>
      <trkpt lat="48.21393" lon="-3.12279">
        <ele>169.265625</ele>
        <time>2020-07-25T10:05:53.000Z</time>
      </trkpt>
      <trkpt lat="48.21387" lon="-3.12269">
        <ele>147.199219</ele>
        <time>2020-07-25T10:06:31.000Z</time>
      </trkpt>
      <trkpt lat="48.21389" lon="-3.12254">
        <ele>146.597656</ele>
        <time>2020-07-25T10:13:18.000Z</time>
      </trkpt>
      <trkpt lat="48.21397" lon="-3.12261">
        <ele>146.199219</ele>
        <time>2020-07-25T10:13:24.000Z</time>
      </trkpt>
      <trkpt lat="48.21405" lon="-3.1227">
        <ele>145.597656</ele>
        <time>2020-07-25T10:13:29.000Z</time>
      </trkpt>
      <trkpt lat="48.21415" lon="-3.12273">
        <ele>145.097656</ele>
        <time>2020-07-25T10:13:35.000Z</time>
      </trkpt>
      <trkpt lat="48.21424" lon="-3.12279">
        <ele>145</ele>
        <time>2020-07-25T10:13:41.000Z</time>
      </trkpt>
      <trkpt lat="48.21431" lon="-3.12288">
        <ele>144.5</ele>
        <time>2020-07-25T10:13:45.000Z</time>
      </trkpt>
      <trkpt lat="48.21435" lon="-3.12299">
        <ele>143.796875</ele>
        <time>2020-07-25T10:13:48.000Z</time>
      </trkpt>
      <trkpt lat="48.21438" lon="-3.12314">
        <ele>143.199219</ele>
        <time>2020-07-25T10:13:51.000Z</time>
      </trkpt>
      <trkpt lat="48.21453" lon="-3.12422">
        <ele>140.5</ele>
        <time>2020-07-25T10:14:07.000Z</time>
      </trkpt>
      <trkpt lat="48.21477" lon="-3.12643">
        <ele>136.398438</ele>
        <time>2020-07-25T10:14:33.000Z</time>
      </trkpt>
      <trkpt lat="48.2147" lon="-3.1266">
        <ele>136.097656</ele>
        <time>2020-07-25T10:14:36.000Z</time>
      </trkpt>
      <trkpt lat="48.21458" lon="-3.12668">
        <ele>135.5</ele>
        <time>2020-07-25T10:14:39.000Z</time>
      </trkpt>
      <trkpt lat="48.21447" lon="-3.12679">
        <ele>135.199219</ele>
        <time>2020-07-25T10:14:42.000Z</time>
      </trkpt>
      <trkpt lat="48.21284" lon="-3.12868">
        <ele>134.097656</ele>
        <time>2020-07-25T10:15:26.000Z</time>
      </trkpt>
      <trkpt lat="48.21276" lon="-3.12879">
        <ele>134.097656</ele>
        <time>2020-07-25T10:15:29.000Z</time>
      </trkpt>
      <trkpt lat="48.21269" lon="-3.12892">
        <ele>133.898438</ele>
        <time>2020-07-25T10:15:32.000Z</time>
      </trkpt>
      <trkpt lat="48.21203" lon="-3.13007">
        <ele>135</ele>
        <time>2020-07-25T10:16:05.000Z</time>
      </trkpt>
      <trkpt lat="48.21195" lon="-3.13013">
        <ele>139.097656</ele>
        <time>2020-07-25T10:16:13.000Z</time>
      </trkpt>
      <trkpt lat="48.21185" lon="-3.13014">
        <ele>138.796875</ele>
        <time>2020-07-25T10:16:32.000Z</time>
      </trkpt>
      <trkpt lat="48.21194" lon="-3.13008">
        <ele>138.296875</ele>
        <time>2020-07-25T10:16:48.000Z</time>
      </trkpt>
      <trkpt lat="48.21203" lon="-3.13">
        <ele>137.699219</ele>
        <time>2020-07-25T10:16:52.000Z</time>
      </trkpt>
      <trkpt lat="48.21211" lon="-3.12988">
        <ele>137.296875</ele>
        <time>2020-07-25T10:16:57.000Z</time>
      </trkpt>
      <trkpt lat="48.21249" lon="-3.12923">
        <ele>134.796875</ele>
        <time>2020-07-25T10:17:13.000Z</time>
      </trkpt>
      <trkpt lat="48.2129" lon="-3.12856">
        <ele>135.699219</ele>
        <time>2020-07-25T10:17:28.000Z</time>
      </trkpt>
      <trkpt lat="48.21372" lon="-3.12757">
        <ele>134</ele>
        <time>2020-07-25T10:17:55.000Z</time>
      </trkpt>
      <trkpt lat="48.21461" lon="-3.12655">
        <ele>133.5</ele>
        <time>2020-07-25T10:18:25.000Z</time>
      </trkpt>
      <trkpt lat="48.2147" lon="-3.1265">
        <ele>133.199219</ele>
        <time>2020-07-25T10:18:29.000Z</time>
      </trkpt>
      <trkpt lat="48.2148" lon="-3.12656">
        <ele>133.199219</ele>
        <time>2020-07-25T10:18:37.000Z</time>
      </trkpt>
      <trkpt lat="48.21483" lon="-3.12672">
        <ele>133.398438</ele>
        <time>2020-07-25T10:18:41.000Z</time>
      </trkpt>
      <trkpt lat="48.21485" lon="-3.12687">
        <ele>133.398438</ele>
        <time>2020-07-25T10:18:44.000Z</time>
      </trkpt>
      <trkpt lat="48.21495" lon="-3.12775">
        <ele>134.898438</ele>
        <time>2020-07-25T10:18:59.000Z</time>
      </trkpt>
      <trkpt lat="48.21501" lon="-3.12789">
        <ele>135.199219</ele>
        <time>2020-07-25T10:19:03.000Z</time>
      </trkpt>
      <trkpt lat="48.21512" lon="-3.12791">
        <ele>135.398438</ele>
        <time>2020-07-25T10:19:07.000Z</time>
      </trkpt>
      <trkpt lat="48.21521" lon="-3.12792">
        <ele>135.699219</ele>
        <time>2020-07-25T10:19:10.000Z</time>
      </trkpt>
      <trkpt lat="48.2158" lon="-3.12794">
        <ele>139.5</ele>
        <time>2020-07-25T10:19:28.000Z</time>
      </trkpt>
      <trkpt lat="48.21591" lon="-3.12797">
        <ele>140.398438</ele>
        <time>2020-07-25T10:19:32.000Z</time>
      </trkpt>
      <trkpt lat="48.21599" lon="-3.12805">
        <ele>141.199219</ele>
        <time>2020-07-25T10:19:36.000Z</time>
      </trkpt>
      <trkpt lat="48.21607" lon="-3.12816">
        <ele>142.796875</ele>
        <time>2020-07-25T10:19:40.000Z</time>
      </trkpt>
      <trkpt lat="48.21609" lon="-3.1283">
        <ele>144.597656</ele>
        <time>2020-07-25T10:19:44.000Z</time>
      </trkpt>
      <trkpt lat="48.21607" lon="-3.12846">
        <ele>146.398438</ele>
        <time>2020-07-25T10:19:49.000Z</time>
      </trkpt>
      <trkpt lat="48.21605" lon="-3.12862">
        <ele>147.898438</ele>
        <time>2020-07-25T10:19:54.000Z</time>
      </trkpt>
      <trkpt lat="48.21605" lon="-3.12877">
        <ele>148.199219</ele>
        <time>2020-07-25T10:19:59.000Z</time>
      </trkpt>
      <trkpt lat="48.21615" lon="-3.12873">
        <ele>146.398438</ele>
        <time>2020-07-25T10:20:05.000Z</time>
      </trkpt>
      <trkpt lat="48.21623" lon="-3.12864">
        <ele>145.5</ele>
        <time>2020-07-25T10:20:09.000Z</time>
      </trkpt>
      <trkpt lat="48.2163" lon="-3.12853">
        <ele>145.597656</ele>
        <time>2020-07-25T10:20:13.000Z</time>
      </trkpt>
      <trkpt lat="48.21658" lon="-3.12805">
        <ele>146.398438</ele>
        <time>2020-07-25T10:20:27.000Z</time>
      </trkpt>
      <trkpt lat="48.21664" lon="-3.12794">
        <ele>147.597656</ele>
        <time>2020-07-25T10:20:30.000Z</time>
      </trkpt>
      <trkpt lat="48.21678" lon="-3.12754">
        <ele>147.199219</ele>
        <time>2020-07-25T10:20:40.000Z</time>
      </trkpt>
      <trkpt lat="48.21698" lon="-3.127">
        <ele>148.398438</ele>
        <time>2020-07-25T10:20:52.000Z</time>
      </trkpt>
      <trkpt lat="48.21724" lon="-3.1263">
        <ele>149.898438</ele>
        <time>2020-07-25T10:21:07.000Z</time>
      </trkpt>
      <trkpt lat="48.2175" lon="-3.12577">
        <ele>150.898438</ele>
        <time>2020-07-25T10:21:19.000Z</time>
      </trkpt>
      <trkpt lat="48.21765" lon="-3.1255">
        <ele>150.898438</ele>
        <time>2020-07-25T10:21:25.000Z</time>
      </trkpt>
      <trkpt lat="48.2181" lon="-3.12472">
        <ele>150.398438</ele>
        <time>2020-07-25T10:21:43.000Z</time>
      </trkpt>
      <trkpt lat="48.21815" lon="-3.12458">
        <ele>150.597656</ele>
        <time>2020-07-25T10:21:46.000Z</time>
      </trkpt>
      <trkpt lat="48.21821" lon="-3.12443">
        <ele>150.699219</ele>
        <time>2020-07-25T10:21:49.000Z</time>
      </trkpt>
      <trkpt lat="48.21826" lon="-3.12426">
        <ele>151.296875</ele>
        <time>2020-07-25T10:21:52.000Z</time>
      </trkpt>
      <trkpt lat="48.2183" lon="-3.1241">
        <ele>151.699219</ele>
        <time>2020-07-25T10:21:55.000Z</time>
      </trkpt>
      <trkpt lat="48.21833" lon="-3.12395">
        <ele>151.699219</ele>
        <time>2020-07-25T10:21:58.000Z</time>
      </trkpt>
      <trkpt lat="48.21838" lon="-3.12366">
        <ele>152.097656</ele>
        <time>2020-07-25T10:22:04.000Z</time>
      </trkpt>
      <trkpt lat="48.2184" lon="-3.12351">
        <ele>152.796875</ele>
        <time>2020-07-25T10:22:07.000Z</time>
      </trkpt>
      <trkpt lat="48.2184" lon="-3.12336">
        <ele>152.796875</ele>
        <time>2020-07-25T10:22:11.000Z</time>
      </trkpt>
      <trkpt lat="48.2184" lon="-3.12303">
        <ele>153.699219</ele>
        <time>2020-07-25T10:22:20.000Z</time>
      </trkpt>
      <trkpt lat="48.21839" lon="-3.12284">
        <ele>153.699219</ele>
        <time>2020-07-25T10:22:24.000Z</time>
      </trkpt>
      <trkpt lat="48.21837" lon="-3.1227">
        <ele>153</ele>
        <time>2020-07-25T10:22:27.000Z</time>
      </trkpt>
      <trkpt lat="48.21834" lon="-3.12257">
        <ele>151</ele>
        <time>2020-07-25T10:22:30.000Z</time>
      </trkpt>
      <trkpt lat="48.21831" lon="-3.12241">
        <ele>150.398438</ele>
        <time>2020-07-25T10:22:34.000Z</time>
      </trkpt>
      <trkpt lat="48.21822" lon="-3.12214">
        <ele>150.296875</ele>
        <time>2020-07-25T10:22:41.000Z</time>
      </trkpt>
      <trkpt lat="48.21817" lon="-3.12201">
        <ele>149.296875</ele>
        <time>2020-07-25T10:22:44.000Z</time>
      </trkpt>
      <trkpt lat="48.21805" lon="-3.12178">
        <ele>147.796875</ele>
        <time>2020-07-25T10:22:50.000Z</time>
      </trkpt>
      <trkpt lat="48.21798" lon="-3.12166">
        <ele>147.5</ele>
        <time>2020-07-25T10:22:53.000Z</time>
      </trkpt>
      <trkpt lat="48.2179" lon="-3.12155">
        <ele>146.699219</ele>
        <time>2020-07-25T10:22:56.000Z</time>
      </trkpt>
      <trkpt lat="48.21783" lon="-3.12143">
        <ele>145.699219</ele>
        <time>2020-07-25T10:22:59.000Z</time>
      </trkpt>
      <trkpt lat="48.21738" lon="-3.1207">
        <ele>148</ele>
        <time>2020-07-25T10:23:17.000Z</time>
      </trkpt>
      <trkpt lat="48.2164" lon="-3.119">
        <ele>152.398438</ele>
        <time>2020-07-25T10:24:02.000Z</time>
      </trkpt>
      <trkpt lat="48.2159" lon="-3.11787">
        <ele>153.398438</ele>
        <time>2020-07-25T10:24:29.000Z</time>
      </trkpt>
      <trkpt lat="48.21574" lon="-3.11744">
        <ele>155.097656</ele>
        <time>2020-07-25T10:24:38.000Z</time>
      </trkpt>
      <trkpt lat="48.21566" lon="-3.11716">
        <ele>154.097656</ele>
        <time>2020-07-25T10:24:44.000Z</time>
      </trkpt>
      <trkpt lat="48.21554" lon="-3.11673">
        <ele>154.097656</ele>
        <time>2020-07-25T10:24:53.000Z</time>
      </trkpt>
      <trkpt lat="48.21539" lon="-3.11612">
        <ele>154.796875</ele>
        <time>2020-07-25T10:25:05.000Z</time>
      </trkpt>
      <trkpt lat="48.21536" lon="-3.11597">
        <ele>155.5</ele>
        <time>2020-07-25T10:25:08.000Z</time>
      </trkpt>
      <trkpt lat="48.21523" lon="-3.11519">
        <ele>154.398438</ele>
        <time>2020-07-25T10:25:23.000Z</time>
      </trkpt>
      <trkpt lat="48.21521" lon="-3.11503">
        <ele>154.796875</ele>
        <time>2020-07-25T10:25:26.000Z</time>
      </trkpt>
      <trkpt lat="48.21512" lon="-3.11408">
        <ele>159.398438</ele>
        <time>2020-07-25T10:25:44.000Z</time>
      </trkpt>
      <trkpt lat="48.21502" lon="-3.1125">
        <ele>164.796875</ele>
        <time>2020-07-25T10:26:14.000Z</time>
      </trkpt>
      <trkpt lat="48.21494" lon="-3.11202">
        <ele>168.398438</ele>
        <time>2020-07-25T10:26:23.000Z</time>
      </trkpt>
      <trkpt lat="48.2149" lon="-3.11186">
        <ele>169.097656</ele>
        <time>2020-07-25T10:26:26.000Z</time>
      </trkpt>
      <trkpt lat="48.21485" lon="-3.11171">
        <ele>169.296875</ele>
        <time>2020-07-25T10:26:29.000Z</time>
      </trkpt>
      <trkpt lat="48.2148" lon="-3.11157">
        <ele>169.699219</ele>
        <time>2020-07-25T10:26:32.000Z</time>
      </trkpt>
      <trkpt lat="48.21475" lon="-3.11144">
        <ele>168.296875</ele>
        <time>2020-07-25T10:26:35.000Z</time>
      </trkpt>
      <trkpt lat="48.21469" lon="-3.11134">
        <ele>166.097656</ele>
        <time>2020-07-25T10:26:38.000Z</time>
      </trkpt>
      <trkpt lat="48.21455" lon="-3.11111">
        <ele>166.097656</ele>
        <time>2020-07-25T10:26:44.000Z</time>
      </trkpt>
      <trkpt lat="48.21443" lon="-3.11087">
        <ele>168.699219</ele>
        <time>2020-07-25T10:26:50.000Z</time>
      </trkpt>
      <trkpt lat="48.21437" lon="-3.11076">
        <ele>169.796875</ele>
        <time>2020-07-25T10:26:53.000Z</time>
      </trkpt>
      <trkpt lat="48.21384" lon="-3.1098">
        <ele>169.898438</ele>
        <time>2020-07-25T10:27:18.000Z</time>
      </trkpt>
      <trkpt lat="48.21377" lon="-3.10965">
        <ele>169.199219</ele>
        <time>2020-07-25T10:27:22.000Z</time>
      </trkpt>
      <trkpt lat="48.21369" lon="-3.10952">
        <ele>169.796875</ele>
        <time>2020-07-25T10:27:25.000Z</time>
      </trkpt>
      <trkpt lat="48.21333" lon="-3.10902">
        <ele>175.796875</ele>
        <time>2020-07-25T10:27:45.000Z</time>
      </trkpt>
      <trkpt lat="48.2133" lon="-3.10886">
        <ele>176.398438</ele>
        <time>2020-07-25T10:27:50.000Z</time>
      </trkpt>
      <trkpt lat="48.21332" lon="-3.1087">
        <ele>177.097656</ele>
        <time>2020-07-25T10:27:54.000Z</time>
      </trkpt>
      <trkpt lat="48.21333" lon="-3.10853">
        <ele>177.597656</ele>
        <time>2020-07-25T10:27:58.000Z</time>
      </trkpt>
      <trkpt lat="48.21335" lon="-3.10809">
        <ele>179.097656</ele>
        <time>2020-07-25T10:28:07.000Z</time>
      </trkpt>
      <trkpt lat="48.21341" lon="-3.10751">
        <ele>181.199219</ele>
        <time>2020-07-25T10:28:19.000Z</time>
      </trkpt>
      <trkpt lat="48.21345" lon="-3.10722">
        <ele>181.898438</ele>
        <time>2020-07-25T10:28:25.000Z</time>
      </trkpt>
      <trkpt lat="48.21349" lon="-3.10709">
        <ele>182.296875</ele>
        <time>2020-07-25T10:28:28.000Z</time>
      </trkpt>
      <trkpt lat="48.21355" lon="-3.10696">
        <ele>182.898438</ele>
        <time>2020-07-25T10:28:31.000Z</time>
      </trkpt>
      <trkpt lat="48.21362" lon="-3.10685">
        <ele>183.898438</ele>
        <time>2020-07-25T10:28:34.000Z</time>
      </trkpt>
      <trkpt lat="48.21368" lon="-3.10675">
        <ele>184.898438</ele>
        <time>2020-07-25T10:28:37.000Z</time>
      </trkpt>
      <trkpt lat="48.21374" lon="-3.10661">
        <ele>184.597656</ele>
        <time>2020-07-25T10:28:41.000Z</time>
      </trkpt>
      <trkpt lat="48.21379" lon="-3.10646">
        <ele>183.796875</ele>
        <time>2020-07-25T10:28:45.000Z</time>
      </trkpt>
      <trkpt lat="48.21386" lon="-3.10632">
        <ele>183.296875</ele>
        <time>2020-07-25T10:28:48.000Z</time>
      </trkpt>
      <trkpt lat="48.21498" lon="-3.10434">
        <ele>182.097656</ele>
        <time>2020-07-25T10:29:26.000Z</time>
      </trkpt>
      <trkpt lat="48.21549" lon="-3.10341">
        <ele>182.796875</ele>
        <time>2020-07-25T10:29:47.000Z</time>
      </trkpt>
      <trkpt lat="48.2156" lon="-3.10316">
        <ele>182.898438</ele>
        <time>2020-07-25T10:29:54.000Z</time>
      </trkpt>
      <trkpt lat="48.21572" lon="-3.10284">
        <ele>183.199219</ele>
        <time>2020-07-25T10:30:00.000Z</time>
      </trkpt>
      <trkpt lat="48.21665" lon="-3.09993">
        <ele>183.898438</ele>
        <time>2020-07-25T10:30:57.000Z</time>
      </trkpt>
      <trkpt lat="48.21784" lon="-3.09602">
        <ele>186.398438</ele>
        <time>2020-07-25T10:32:18.000Z</time>
      </trkpt>
      <trkpt lat="48.21789" lon="-3.09575">
        <ele>187.199219</ele>
        <time>2020-07-25T10:32:24.000Z</time>
      </trkpt>
      <trkpt lat="48.21802" lon="-3.09468">
        <ele>190.796875</ele>
        <time>2020-07-25T10:32:45.000Z</time>
      </trkpt>
      <trkpt lat="48.21804" lon="-3.09437">
        <ele>190.796875</ele>
        <time>2020-07-25T10:32:51.000Z</time>
      </trkpt>
      <trkpt lat="48.21805" lon="-3.09404">
        <ele>190.796875</ele>
        <time>2020-07-25T10:32:57.000Z</time>
      </trkpt>
      <trkpt lat="48.21803" lon="-3.09341">
        <ele>189.699219</ele>
        <time>2020-07-25T10:33:09.000Z</time>
      </trkpt>
      <trkpt lat="48.21799" lon="-3.09311">
        <ele>190.5</ele>
        <time>2020-07-25T10:33:15.000Z</time>
      </trkpt>
      <trkpt lat="48.21791" lon="-3.0925">
        <ele>190.796875</ele>
        <time>2020-07-25T10:33:27.000Z</time>
      </trkpt>
      <trkpt lat="48.21744" lon="-3.08975">
        <ele>193.097656</ele>
        <time>2020-07-25T10:34:18.000Z</time>
      </trkpt>
      <trkpt lat="48.21741" lon="-3.08928">
        <ele>190.398438</ele>
        <time>2020-07-25T10:34:27.000Z</time>
      </trkpt>
      <trkpt lat="48.21741" lon="-3.08911">
        <ele>190.597656</ele>
        <time>2020-07-25T10:34:30.000Z</time>
      </trkpt>
      <trkpt lat="48.21742" lon="-3.08841">
        <ele>192.097656</ele>
        <time>2020-07-25T10:34:42.000Z</time>
      </trkpt>
      <trkpt lat="48.21747" lon="-3.08765">
        <ele>198.597656</ele>
        <time>2020-07-25T10:34:54.000Z</time>
      </trkpt>
      <trkpt lat="48.21751" lon="-3.08748">
        <ele>199.296875</ele>
        <time>2020-07-25T10:34:57.000Z</time>
      </trkpt>
      <trkpt lat="48.21766" lon="-3.08682">
        <ele>200.898438</ele>
        <time>2020-07-25T10:35:09.000Z</time>
      </trkpt>
      <trkpt lat="48.21779" lon="-3.08638">
        <ele>201.597656</ele>
        <time>2020-07-25T10:35:19.000Z</time>
      </trkpt>
      <trkpt lat="48.21789" lon="-3.08611">
        <ele>201.699219</ele>
        <time>2020-07-25T10:35:27.000Z</time>
      </trkpt>
      <trkpt lat="48.21798" lon="-3.08585">
        <ele>201.597656</ele>
        <time>2020-07-25T10:35:33.000Z</time>
      </trkpt>
      <trkpt lat="48.21884" lon="-3.08304">
        <ele>201.097656</ele>
        <time>2020-07-25T10:36:30.000Z</time>
      </trkpt>
      <trkpt lat="48.21897" lon="-3.08247">
        <ele>200.5</ele>
        <time>2020-07-25T10:36:45.000Z</time>
      </trkpt>
      <trkpt lat="48.21901" lon="-3.08231">
        <ele>199.5</ele>
        <time>2020-07-25T10:36:48.000Z</time>
      </trkpt>
      <trkpt lat="48.21905" lon="-3.08199">
        <ele>198.5</ele>
        <time>2020-07-25T10:36:54.000Z</time>
      </trkpt>
      <trkpt lat="48.21907" lon="-3.08181">
        <ele>198.199219</ele>
        <time>2020-07-25T10:36:57.000Z</time>
      </trkpt>
      <trkpt lat="48.2191" lon="-3.08128">
        <ele>197.796875</ele>
        <time>2020-07-25T10:37:06.000Z</time>
      </trkpt>
      <trkpt lat="48.21911" lon="-3.08072">
        <ele>199.898438</ele>
        <time>2020-07-25T10:37:15.000Z</time>
      </trkpt>
      <trkpt lat="48.21908" lon="-3.07999">
        <ele>201.296875</ele>
        <time>2020-07-25T10:37:27.000Z</time>
      </trkpt>
      <trkpt lat="48.21899" lon="-3.07913">
        <ele>202.898438</ele>
        <time>2020-07-25T10:37:42.000Z</time>
      </trkpt>
      <trkpt lat="48.21891" lon="-3.07868">
        <ele>204</ele>
        <time>2020-07-25T10:37:51.000Z</time>
      </trkpt>
      <trkpt lat="48.21845" lon="-3.07616">
        <ele>203</ele>
        <time>2020-07-25T10:38:33.000Z</time>
      </trkpt>
      <trkpt lat="48.21843" lon="-3.07582">
        <ele>202.796875</ele>
        <time>2020-07-25T10:38:38.000Z</time>
      </trkpt>
      <trkpt lat="48.21839" lon="-3.07528">
        <ele>202</ele>
        <time>2020-07-25T10:38:47.000Z</time>
      </trkpt>
      <trkpt lat="48.21839" lon="-3.07509">
        <ele>202.199219</ele>
        <time>2020-07-25T10:38:50.000Z</time>
      </trkpt>
      <trkpt lat="48.2184" lon="-3.07467">
        <ele>204.796875</ele>
        <time>2020-07-25T10:38:56.000Z</time>
      </trkpt>
      <trkpt lat="48.21841" lon="-3.07431">
        <ele>205.898438</ele>
        <time>2020-07-25T10:39:02.000Z</time>
      </trkpt>
      <trkpt lat="48.21844" lon="-3.07397">
        <ele>208.5</ele>
        <time>2020-07-25T10:39:08.000Z</time>
      </trkpt>
      <trkpt lat="48.21846" lon="-3.07382">
        <ele>210.898438</ele>
        <time>2020-07-25T10:39:11.000Z</time>
      </trkpt>
      <trkpt lat="48.2185" lon="-3.07346">
        <ele>211</ele>
        <time>2020-07-25T10:39:17.000Z</time>
      </trkpt>
      <trkpt lat="48.21852" lon="-3.07312">
        <ele>208.898438</ele>
        <time>2020-07-25T10:39:23.000Z</time>
      </trkpt>
      <trkpt lat="48.21852" lon="-3.07294">
        <ele>210</ele>
        <time>2020-07-25T10:39:26.000Z</time>
      </trkpt>
      <trkpt lat="48.21854" lon="-3.07277">
        <ele>210.097656</ele>
        <time>2020-07-25T10:39:29.000Z</time>
      </trkpt>
      <trkpt lat="48.21858" lon="-3.07202">
        <ele>209.5</ele>
        <time>2020-07-25T10:39:41.000Z</time>
      </trkpt>
      <trkpt lat="48.21857" lon="-3.07152">
        <ele>207.699219</ele>
        <time>2020-07-25T10:39:50.000Z</time>
      </trkpt>
      <trkpt lat="48.21855" lon="-3.07123">
        <ele>207.5</ele>
        <time>2020-07-25T10:39:56.000Z</time>
      </trkpt>
      <trkpt lat="48.21853" lon="-3.07105">
        <ele>207.597656</ele>
        <time>2020-07-25T10:39:59.000Z</time>
      </trkpt>
      <trkpt lat="48.21851" lon="-3.07088">
        <ele>207.898438</ele>
        <time>2020-07-25T10:40:02.000Z</time>
      </trkpt>
      <trkpt lat="48.21842" lon="-3.0704">
        <ele>206.5</ele>
        <time>2020-07-25T10:40:11.000Z</time>
      </trkpt>
      <trkpt lat="48.21834" lon="-3.07008">
        <ele>207.199219</ele>
        <time>2020-07-25T10:40:17.000Z</time>
      </trkpt>
      <trkpt lat="48.21825" lon="-3.06974">
        <ele>207.699219</ele>
        <time>2020-07-25T10:40:23.000Z</time>
      </trkpt>
      <trkpt lat="48.2182" lon="-3.06957">
        <ele>207.796875</ele>
        <time>2020-07-25T10:40:26.000Z</time>
      </trkpt>
      <trkpt lat="48.21808" lon="-3.06924">
        <ele>207.898438</ele>
        <time>2020-07-25T10:40:32.000Z</time>
      </trkpt>
      <trkpt lat="48.2179" lon="-3.06878">
        <ele>208</ele>
        <time>2020-07-25T10:40:41.000Z</time>
      </trkpt>
      <trkpt lat="48.21783" lon="-3.06864">
        <ele>207.898438</ele>
        <time>2020-07-25T10:40:44.000Z</time>
      </trkpt>
      <trkpt lat="48.21768" lon="-3.06836">
        <ele>207.898438</ele>
        <time>2020-07-25T10:40:50.000Z</time>
      </trkpt>
      <trkpt lat="48.2176" lon="-3.06823">
        <ele>207.699219</ele>
        <time>2020-07-25T10:40:53.000Z</time>
      </trkpt>
      <trkpt lat="48.21735" lon="-3.06785">
        <ele>207.296875</ele>
        <time>2020-07-25T10:41:02.000Z</time>
      </trkpt>
      <trkpt lat="48.21638" lon="-3.06654">
        <ele>203.5</ele>
        <time>2020-07-25T10:41:35.000Z</time>
      </trkpt>
      <trkpt lat="48.21597" lon="-3.06604">
        <ele>199.097656</ele>
        <time>2020-07-25T10:41:52.000Z</time>
      </trkpt>
      <trkpt lat="48.21589" lon="-3.06593">
        <ele>199.796875</ele>
        <time>2020-07-25T10:41:55.000Z</time>
      </trkpt>
      <trkpt lat="48.21574" lon="-3.0657">
        <ele>200.296875</ele>
        <time>2020-07-25T10:42:01.000Z</time>
      </trkpt>
      <trkpt lat="48.21568" lon="-3.06559">
        <ele>200.597656</ele>
        <time>2020-07-25T10:42:04.000Z</time>
      </trkpt>
      <trkpt lat="48.21549" lon="-3.06522">
        <ele>203.898438</ele>
        <time>2020-07-25T10:42:15.000Z</time>
      </trkpt>
      <trkpt lat="48.21543" lon="-3.06508">
        <ele>205.398438</ele>
        <time>2020-07-25T10:42:20.000Z</time>
      </trkpt>
      <trkpt lat="48.21539" lon="-3.06494">
        <ele>205.898438</ele>
        <time>2020-07-25T10:42:25.000Z</time>
      </trkpt>
      <trkpt lat="48.21532" lon="-3.06466">
        <ele>207.296875</ele>
        <time>2020-07-25T10:42:31.000Z</time>
      </trkpt>
      <trkpt lat="48.21524" lon="-3.06433">
        <ele>207.5</ele>
        <time>2020-07-25T10:42:37.000Z</time>
      </trkpt>
      <trkpt lat="48.21517" lon="-3.06399">
        <ele>207.699219</ele>
        <time>2020-07-25T10:42:43.000Z</time>
      </trkpt>
      <trkpt lat="48.21514" lon="-3.06381">
        <ele>207.699219</ele>
        <time>2020-07-25T10:42:46.000Z</time>
      </trkpt>
      <trkpt lat="48.21512" lon="-3.06363">
        <ele>207.5</ele>
        <time>2020-07-25T10:42:49.000Z</time>
      </trkpt>
      <trkpt lat="48.21509" lon="-3.0631">
        <ele>204.796875</ele>
        <time>2020-07-25T10:42:58.000Z</time>
      </trkpt>
      <trkpt lat="48.21508" lon="-3.06292">
        <ele>203.398438</ele>
        <time>2020-07-25T10:43:01.000Z</time>
      </trkpt>
      <trkpt lat="48.2151" lon="-3.06275">
        <ele>202.898438</ele>
        <time>2020-07-25T10:43:04.000Z</time>
      </trkpt>
      <trkpt lat="48.21509" lon="-3.06256">
        <ele>203</ele>
        <time>2020-07-25T10:43:07.000Z</time>
      </trkpt>
      <trkpt lat="48.21512" lon="-3.06237">
        <ele>203.296875</ele>
        <time>2020-07-25T10:43:10.000Z</time>
      </trkpt>
      <trkpt lat="48.21525" lon="-3.06169">
        <ele>204.199219</ele>
        <time>2020-07-25T10:43:20.000Z</time>
      </trkpt>
      <trkpt lat="48.21532" lon="-3.06139">
        <ele>204.097656</ele>
        <time>2020-07-25T10:43:25.000Z</time>
      </trkpt>
      <trkpt lat="48.21538" lon="-3.06122">
        <ele>203.097656</ele>
        <time>2020-07-25T10:43:28.000Z</time>
      </trkpt>
      <trkpt lat="48.21554" lon="-3.06076">
        <ele>200.699219</ele>
        <time>2020-07-25T10:43:36.000Z</time>
      </trkpt>
      <trkpt lat="48.21579" lon="-3.06025">
        <ele>199.199219</ele>
        <time>2020-07-25T10:43:45.000Z</time>
      </trkpt>
      <trkpt lat="48.21649" lon="-3.0588">
        <ele>198</ele>
        <time>2020-07-25T10:44:09.000Z</time>
      </trkpt>
      <trkpt lat="48.21658" lon="-3.05855">
        <ele>196.699219</ele>
        <time>2020-07-25T10:44:13.000Z</time>
      </trkpt>
      <trkpt lat="48.21672" lon="-3.05812">
        <ele>194.796875</ele>
        <time>2020-07-25T10:44:19.000Z</time>
      </trkpt>
      <trkpt lat="48.21676" lon="-3.05797">
        <ele>194.699219</ele>
        <time>2020-07-25T10:44:21.000Z</time>
      </trkpt>
      <trkpt lat="48.21689" lon="-3.0574">
        <ele>194.699219</ele>
        <time>2020-07-25T10:44:29.000Z</time>
      </trkpt>
      <trkpt lat="48.21702" lon="-3.05665">
        <ele>192.398438</ele>
        <time>2020-07-25T10:44:39.000Z</time>
      </trkpt>
      <trkpt lat="48.21725" lon="-3.05478">
        <ele>189.699219</ele>
        <time>2020-07-25T10:45:05.000Z</time>
      </trkpt>
      <trkpt lat="48.21727" lon="-3.05444">
        <ele>190</ele>
        <time>2020-07-25T10:45:10.000Z</time>
      </trkpt>
      <trkpt lat="48.21727" lon="-3.05426">
        <ele>191.898438</ele>
        <time>2020-07-25T10:45:13.000Z</time>
      </trkpt>
      <trkpt lat="48.21726" lon="-3.05407">
        <ele>192.597656</ele>
        <time>2020-07-25T10:45:16.000Z</time>
      </trkpt>
      <trkpt lat="48.21722" lon="-3.05372">
        <ele>191.199219</ele>
        <time>2020-07-25T10:45:22.000Z</time>
      </trkpt>
      <trkpt lat="48.21719" lon="-3.05355">
        <ele>191.5</ele>
        <time>2020-07-25T10:45:25.000Z</time>
      </trkpt>
      <trkpt lat="48.21714" lon="-3.05338">
        <ele>191.898438</ele>
        <time>2020-07-25T10:45:28.000Z</time>
      </trkpt>
      <trkpt lat="48.21683" lon="-3.05238">
        <ele>192.199219</ele>
        <time>2020-07-25T10:45:44.000Z</time>
      </trkpt>
      <trkpt lat="48.2168" lon="-3.05225">
        <ele>192</ele>
        <time>2020-07-25T10:45:46.000Z</time>
      </trkpt>
      <trkpt lat="48.21671" lon="-3.05185">
        <ele>191.5</ele>
        <time>2020-07-25T10:45:52.000Z</time>
      </trkpt>
      <trkpt lat="48.21666" lon="-3.05172">
        <ele>191.398438</ele>
        <time>2020-07-25T10:45:54.000Z</time>
      </trkpt>
      <trkpt lat="48.21663" lon="-3.05158">
        <ele>191.398438</ele>
        <time>2020-07-25T10:45:56.000Z</time>
      </trkpt>
      <trkpt lat="48.21609" lon="-3.04967">
        <ele>186.796875</ele>
        <time>2020-07-25T10:46:27.000Z</time>
      </trkpt>
      <trkpt lat="48.21558" lon="-3.04803">
        <ele>185.398438</ele>
        <time>2020-07-25T10:46:54.000Z</time>
      </trkpt>
      <trkpt lat="48.21554" lon="-3.04786">
        <ele>186.199219</ele>
        <time>2020-07-25T10:46:57.000Z</time>
      </trkpt>
      <trkpt lat="48.21548" lon="-3.04769">
        <ele>187.796875</ele>
        <time>2020-07-25T10:47:00.000Z</time>
      </trkpt>
      <trkpt lat="48.21521" lon="-3.04679">
        <ele>185.296875</ele>
        <time>2020-07-25T10:47:14.000Z</time>
      </trkpt>
      <trkpt lat="48.21486" lon="-3.04556">
        <ele>180.699219</ele>
        <time>2020-07-25T10:47:32.000Z</time>
      </trkpt>
      <trkpt lat="48.21483" lon="-3.04542">
        <ele>180.097656</ele>
        <time>2020-07-25T10:47:34.000Z</time>
      </trkpt>
      <trkpt lat="48.21481" lon="-3.04523">
        <ele>179.199219</ele>
        <time>2020-07-25T10:47:37.000Z</time>
      </trkpt>
      <trkpt lat="48.21478" lon="-3.04507">
        <ele>178.898438</ele>
        <time>2020-07-25T10:47:40.000Z</time>
      </trkpt>
      <trkpt lat="48.21477" lon="-3.04492">
        <ele>178.5</ele>
        <time>2020-07-25T10:47:43.000Z</time>
      </trkpt>
      <trkpt lat="48.21474" lon="-3.0446">
        <ele>178.097656</ele>
        <time>2020-07-25T10:47:49.000Z</time>
      </trkpt>
      <trkpt lat="48.21475" lon="-3.04445">
        <ele>177.097656</ele>
        <time>2020-07-25T10:47:52.000Z</time>
      </trkpt>
      <trkpt lat="48.21477" lon="-3.04412">
        <ele>177.199219</ele>
        <time>2020-07-25T10:47:59.000Z</time>
      </trkpt>
      <trkpt lat="48.21478" lon="-3.04397">
        <ele>177.796875</ele>
        <time>2020-07-25T10:48:02.000Z</time>
      </trkpt>
      <trkpt lat="48.21481" lon="-3.0438">
        <ele>177.898438</ele>
        <time>2020-07-25T10:48:05.000Z</time>
      </trkpt>
      <trkpt lat="48.21491" lon="-3.04329">
        <ele>177.898438</ele>
        <time>2020-07-25T10:48:13.000Z</time>
      </trkpt>
      <trkpt lat="48.21495" lon="-3.0431">
        <ele>178</ele>
        <time>2020-07-25T10:48:16.000Z</time>
      </trkpt>
      <trkpt lat="48.21518" lon="-3.04232">
        <ele>177.796875</ele>
        <time>2020-07-25T10:48:33.000Z</time>
      </trkpt>
      <trkpt lat="48.21548" lon="-3.0413">
        <ele>175</ele>
        <time>2020-07-25T10:48:51.000Z</time>
      </trkpt>
      <trkpt lat="48.21555" lon="-3.04094">
        <ele>174.597656</ele>
        <time>2020-07-25T10:48:57.000Z</time>
      </trkpt>
      <trkpt lat="48.21558" lon="-3.04067">
        <ele>174.296875</ele>
        <time>2020-07-25T10:49:01.000Z</time>
      </trkpt>
      <trkpt lat="48.21559" lon="-3.04053">
        <ele>174</ele>
        <time>2020-07-25T10:49:03.000Z</time>
      </trkpt>
      <trkpt lat="48.2156" lon="-3.04025">
        <ele>174</ele>
        <time>2020-07-25T10:49:07.000Z</time>
      </trkpt>
      <trkpt lat="48.2156" lon="-3.03998">
        <ele>174.296875</ele>
        <time>2020-07-25T10:49:11.000Z</time>
      </trkpt>
      <trkpt lat="48.21557" lon="-3.0398">
        <ele>174.597656</ele>
        <time>2020-07-25T10:49:14.000Z</time>
      </trkpt>
      <trkpt lat="48.2155" lon="-3.03969">
        <ele>173.597656</ele>
        <time>2020-07-25T10:49:19.000Z</time>
      </trkpt>
      <trkpt lat="48.21542" lon="-3.03955">
        <ele>172.699219</ele>
        <time>2020-07-25T10:49:23.000Z</time>
      </trkpt>
      <trkpt lat="48.21539" lon="-3.03941">
        <ele>172.199219</ele>
        <time>2020-07-25T10:49:25.000Z</time>
      </trkpt>
      <trkpt lat="48.21517" lon="-3.03815">
        <ele>172.199219</ele>
        <time>2020-07-25T10:49:45.000Z</time>
      </trkpt>
      <trkpt lat="48.21513" lon="-3.03799">
        <ele>172.796875</ele>
        <time>2020-07-25T10:49:49.000Z</time>
      </trkpt>
      <trkpt lat="48.21507" lon="-3.03785">
        <ele>173.097656</ele>
        <time>2020-07-25T10:49:53.000Z</time>
      </trkpt>
      <trkpt lat="48.21502" lon="-3.03773">
        <ele>172.898438</ele>
        <time>2020-07-25T10:49:56.000Z</time>
      </trkpt>
      <trkpt lat="48.21499" lon="-3.0376">
        <ele>172.597656</ele>
        <time>2020-07-25T10:49:59.000Z</time>
      </trkpt>
      <trkpt lat="48.21479" lon="-3.03656">
        <ele>172.898438</ele>
        <time>2020-07-25T10:50:17.000Z</time>
      </trkpt>
      <trkpt lat="48.21476" lon="-3.03637">
        <ele>172.898438</ele>
        <time>2020-07-25T10:50:20.000Z</time>
      </trkpt>
      <trkpt lat="48.21482" lon="-3.03623">
        <ele>173.199219</ele>
        <time>2020-07-25T10:50:23.000Z</time>
      </trkpt>
      <trkpt lat="48.21487" lon="-3.0361">
        <ele>173.898438</ele>
        <time>2020-07-25T10:50:26.000Z</time>
      </trkpt>
      <trkpt lat="48.21488" lon="-3.03592">
        <ele>174.097656</ele>
        <time>2020-07-25T10:50:30.000Z</time>
      </trkpt>
      <trkpt lat="48.21489" lon="-3.03559">
        <ele>174.097656</ele>
        <time>2020-07-25T10:50:36.000Z</time>
      </trkpt>
      <trkpt lat="48.21488" lon="-3.03489">
        <ele>174.398438</ele>
        <time>2020-07-25T10:50:47.000Z</time>
      </trkpt>
      <trkpt lat="48.21487" lon="-3.03424">
        <ele>172</ele>
        <time>2020-07-25T10:50:59.000Z</time>
      </trkpt>
      <trkpt lat="48.2149" lon="-3.03391">
        <ele>170.597656</ele>
        <time>2020-07-25T10:51:05.000Z</time>
      </trkpt>
      <trkpt lat="48.21497" lon="-3.03325">
        <ele>171</ele>
        <time>2020-07-25T10:51:15.000Z</time>
      </trkpt>
      <trkpt lat="48.21502" lon="-3.03288">
        <ele>170.597656</ele>
        <time>2020-07-25T10:51:21.000Z</time>
      </trkpt>
      <trkpt lat="48.2151" lon="-3.03251">
        <ele>169.898438</ele>
        <time>2020-07-25T10:51:27.000Z</time>
      </trkpt>
      <trkpt lat="48.21533" lon="-3.03153">
        <ele>169.398438</ele>
        <time>2020-07-25T10:51:41.000Z</time>
      </trkpt>
      <trkpt lat="48.21542" lon="-3.03123">
        <ele>169.796875</ele>
        <time>2020-07-25T10:51:46.000Z</time>
      </trkpt>
      <trkpt lat="48.21545" lon="-3.03109">
        <ele>169.898438</ele>
        <time>2020-07-25T10:51:49.000Z</time>
      </trkpt>
      <trkpt lat="48.21551" lon="-3.03094">
        <ele>170</ele>
        <time>2020-07-25T10:51:53.000Z</time>
      </trkpt>
      <trkpt lat="48.21562" lon="-3.03063">
        <ele>169.398438</ele>
        <time>2020-07-25T10:51:59.000Z</time>
      </trkpt>
      <trkpt lat="48.21567" lon="-3.03046">
        <ele>168.898438</ele>
        <time>2020-07-25T10:52:02.000Z</time>
      </trkpt>
      <trkpt lat="48.21596" lon="-3.02961">
        <ele>167.5</ele>
        <time>2020-07-25T10:52:17.000Z</time>
      </trkpt>
      <trkpt lat="48.21626" lon="-3.02885">
        <ele>165.796875</ele>
        <time>2020-07-25T10:52:29.000Z</time>
      </trkpt>
      <trkpt lat="48.21691" lon="-3.02715">
        <ele>161.898438</ele>
        <time>2020-07-25T10:52:53.000Z</time>
      </trkpt>
      <trkpt lat="48.21716" lon="-3.02643">
        <ele>158.597656</ele>
        <time>2020-07-25T10:53:03.000Z</time>
      </trkpt>
      <trkpt lat="48.2172" lon="-3.02629">
        <ele>157.796875</ele>
        <time>2020-07-25T10:53:05.000Z</time>
      </trkpt>
      <trkpt lat="48.21726" lon="-3.026">
        <ele>156</ele>
        <time>2020-07-25T10:53:09.000Z</time>
      </trkpt>
      <trkpt lat="48.21729" lon="-3.02584">
        <ele>155.597656</ele>
        <time>2020-07-25T10:53:11.000Z</time>
      </trkpt>
      <trkpt lat="48.2173" lon="-3.02568">
        <ele>155.5</ele>
        <time>2020-07-25T10:53:13.000Z</time>
      </trkpt>
      <trkpt lat="48.21731" lon="-3.02552">
        <ele>155.199219</ele>
        <time>2020-07-25T10:53:15.000Z</time>
      </trkpt>
      <trkpt lat="48.21731" lon="-3.02535">
        <ele>154.796875</ele>
        <time>2020-07-25T10:53:17.000Z</time>
      </trkpt>
      <trkpt lat="48.21729" lon="-3.02501">
        <ele>155.5</ele>
        <time>2020-07-25T10:53:21.000Z</time>
      </trkpt>
      <trkpt lat="48.21727" lon="-3.02485">
        <ele>155.699219</ele>
        <time>2020-07-25T10:53:23.000Z</time>
      </trkpt>
      <trkpt lat="48.21725" lon="-3.0247">
        <ele>156</ele>
        <time>2020-07-25T10:53:25.000Z</time>
      </trkpt>
      <trkpt lat="48.21718" lon="-3.02438">
        <ele>156.097656</ele>
        <time>2020-07-25T10:53:30.000Z</time>
      </trkpt>
      <trkpt lat="48.21714" lon="-3.02425">
        <ele>156.199219</ele>
        <time>2020-07-25T10:53:32.000Z</time>
      </trkpt>
      <trkpt lat="48.21708" lon="-3.02407">
        <ele>156.296875</ele>
        <time>2020-07-25T10:53:35.000Z</time>
      </trkpt>
      <trkpt lat="48.21701" lon="-3.0239">
        <ele>156.097656</ele>
        <time>2020-07-25T10:53:38.000Z</time>
      </trkpt>
      <trkpt lat="48.21693" lon="-3.02375">
        <ele>155.796875</ele>
        <time>2020-07-25T10:53:41.000Z</time>
      </trkpt>
      <trkpt lat="48.21676" lon="-3.02346">
        <ele>156.796875</ele>
        <time>2020-07-25T10:53:47.000Z</time>
      </trkpt>
      <trkpt lat="48.21649" lon="-3.02306">
        <ele>156.597656</ele>
        <time>2020-07-25T10:53:55.000Z</time>
      </trkpt>
      <trkpt lat="48.21582" lon="-3.02202">
        <ele>150.199219</ele>
        <time>2020-07-25T10:54:15.000Z</time>
      </trkpt>
      <trkpt lat="48.21575" lon="-3.0219">
        <ele>150.296875</ele>
        <time>2020-07-25T10:54:17.000Z</time>
      </trkpt>
      <trkpt lat="48.2157" lon="-3.02177">
        <ele>150.097656</ele>
        <time>2020-07-25T10:54:19.000Z</time>
      </trkpt>
      <trkpt lat="48.21559" lon="-3.0215">
        <ele>150</ele>
        <time>2020-07-25T10:54:23.000Z</time>
      </trkpt>
      <trkpt lat="48.21546" lon="-3.02107">
        <ele>151.097656</ele>
        <time>2020-07-25T10:54:29.000Z</time>
      </trkpt>
      <trkpt lat="48.2154" lon="-3.02081">
        <ele>151</ele>
        <time>2020-07-25T10:54:33.000Z</time>
      </trkpt>
      <trkpt lat="48.21537" lon="-3.02066">
        <ele>151.199219</ele>
        <time>2020-07-25T10:54:35.000Z</time>
      </trkpt>
      <trkpt lat="48.21518" lon="-3.0195">
        <ele>151.199219</ele>
        <time>2020-07-25T10:54:51.000Z</time>
      </trkpt>
      <trkpt lat="48.2148" lon="-3.01677">
        <ele>149.699219</ele>
        <time>2020-07-25T10:55:27.000Z</time>
      </trkpt>
      <trkpt lat="48.21479" lon="-3.01662">
        <ele>149.597656</ele>
        <time>2020-07-25T10:55:29.000Z</time>
      </trkpt>
      <trkpt lat="48.21479" lon="-3.01634">
        <ele>149.5</ele>
        <time>2020-07-25T10:55:33.000Z</time>
      </trkpt>
      <trkpt lat="48.21481" lon="-3.01587">
        <ele>149.597656</ele>
        <time>2020-07-25T10:55:40.000Z</time>
      </trkpt>
      <trkpt lat="48.21484" lon="-3.01569">
        <ele>149.898438</ele>
        <time>2020-07-25T10:55:43.000Z</time>
      </trkpt>
      <trkpt lat="48.21488" lon="-3.0154">
        <ele>150</ele>
        <time>2020-07-25T10:55:51.000Z</time>
      </trkpt>
      <trkpt lat="48.21495" lon="-3.01512">
        <ele>147.597656</ele>
        <time>2020-07-25T10:55:58.000Z</time>
      </trkpt>
      <trkpt lat="48.21505" lon="-3.01479">
        <ele>145.699219</ele>
        <time>2020-07-25T10:56:04.000Z</time>
      </trkpt>
      <trkpt lat="48.21543" lon="-3.01364">
        <ele>143.199219</ele>
        <time>2020-07-25T10:56:25.000Z</time>
      </trkpt>
      <trkpt lat="48.21555" lon="-3.01333">
        <ele>143.796875</ele>
        <time>2020-07-25T10:56:31.000Z</time>
      </trkpt>
      <trkpt lat="48.2156" lon="-3.01315">
        <ele>144</ele>
        <time>2020-07-25T10:56:34.000Z</time>
      </trkpt>
      <trkpt lat="48.21568" lon="-3.01278">
        <ele>144.296875</ele>
        <time>2020-07-25T10:56:40.000Z</time>
      </trkpt>
      <trkpt lat="48.21571" lon="-3.01258">
        <ele>144.5</ele>
        <time>2020-07-25T10:56:43.000Z</time>
      </trkpt>
      <trkpt lat="48.21573" lon="-3.01245">
        <ele>144.699219</ele>
        <time>2020-07-25T10:56:45.000Z</time>
      </trkpt>
      <trkpt lat="48.21575" lon="-3.01218">
        <ele>145.097656</ele>
        <time>2020-07-25T10:56:49.000Z</time>
      </trkpt>
      <trkpt lat="48.21575" lon="-3.01204">
        <ele>145.296875</ele>
        <time>2020-07-25T10:56:51.000Z</time>
      </trkpt>
      <trkpt lat="48.21574" lon="-3.01184">
        <ele>145.199219</ele>
        <time>2020-07-25T10:56:54.000Z</time>
      </trkpt>
      <trkpt lat="48.21572" lon="-3.01166">
        <ele>145.296875</ele>
        <time>2020-07-25T10:56:57.000Z</time>
      </trkpt>
      <trkpt lat="48.2157" lon="-3.01148">
        <ele>145.296875</ele>
        <time>2020-07-25T10:57:00.000Z</time>
      </trkpt>
      <trkpt lat="48.21566" lon="-3.01129">
        <ele>145.5</ele>
        <time>2020-07-25T10:57:03.000Z</time>
      </trkpt>
      <trkpt lat="48.21562" lon="-3.01111">
        <ele>145.199219</ele>
        <time>2020-07-25T10:57:06.000Z</time>
      </trkpt>
      <trkpt lat="48.21551" lon="-3.01075">
        <ele>145.796875</ele>
        <time>2020-07-25T10:57:12.000Z</time>
      </trkpt>
      <trkpt lat="48.21545" lon="-3.0106">
        <ele>145.5</ele>
        <time>2020-07-25T10:57:15.000Z</time>
      </trkpt>
      <trkpt lat="48.21526" lon="-3.01018">
        <ele>145.597656</ele>
        <time>2020-07-25T10:57:24.000Z</time>
      </trkpt>
      <trkpt lat="48.21511" lon="-3.0099">
        <ele>144.699219</ele>
        <time>2020-07-25T10:57:30.000Z</time>
      </trkpt>
      <trkpt lat="48.21495" lon="-3.00963">
        <ele>143.796875</ele>
        <time>2020-07-25T10:57:36.000Z</time>
      </trkpt>
      <trkpt lat="48.21457" lon="-3.00903">
        <ele>143.898438</ele>
        <time>2020-07-25T10:57:51.000Z</time>
      </trkpt>
      <trkpt lat="48.21424" lon="-3.00864">
        <ele>142.296875</ele>
        <time>2020-07-25T10:58:03.000Z</time>
      </trkpt>
      <trkpt lat="48.21405" lon="-3.00843">
        <ele>142.097656</ele>
        <time>2020-07-25T10:58:09.000Z</time>
      </trkpt>
      <trkpt lat="48.213" lon="-3.00713">
        <ele>146.796875</ele>
        <time>2020-07-25T10:58:45.000Z</time>
      </trkpt>
      <trkpt lat="48.21292" lon="-3.00704">
        <ele>147</ele>
        <time>2020-07-25T10:58:48.000Z</time>
      </trkpt>
      <trkpt lat="48.208" lon="-3.00138">
        <ele>147.597656</ele>
        <time>2020-07-25T11:01:34.000Z</time>
      </trkpt>
      <trkpt lat="48.20783" lon="-3.00121">
        <ele>147.199219</ele>
        <time>2020-07-25T11:01:40.000Z</time>
      </trkpt>
      <trkpt lat="48.20763" lon="-3.00104">
        <ele>145.796875</ele>
        <time>2020-07-25T11:01:46.000Z</time>
      </trkpt>
      <trkpt lat="48.20735" lon="-3.00084">
        <ele>144.699219</ele>
        <time>2020-07-25T11:01:55.000Z</time>
      </trkpt>
      <trkpt lat="48.20714" lon="-3.00072">
        <ele>143.597656</ele>
        <time>2020-07-25T11:02:01.000Z</time>
      </trkpt>
      <trkpt lat="48.20693" lon="-3.00063">
        <ele>142.296875</ele>
        <time>2020-07-25T11:02:07.000Z</time>
      </trkpt>
      <trkpt lat="48.20642" lon="-3.00044">
        <ele>143.398438</ele>
        <time>2020-07-25T11:02:22.000Z</time>
      </trkpt>
      <trkpt lat="48.20631" lon="-3.00041">
        <ele>143.796875</ele>
        <time>2020-07-25T11:02:25.000Z</time>
      </trkpt>
      <trkpt lat="48.2062" lon="-3.00039">
        <ele>144.097656</ele>
        <time>2020-07-25T11:02:28.000Z</time>
      </trkpt>
      <trkpt lat="48.20577" lon="-3.00037">
        <ele>145.898438</ele>
        <time>2020-07-25T11:02:40.000Z</time>
      </trkpt>
      <trkpt lat="48.20566" lon="-3.00037">
        <ele>146.097656</ele>
        <time>2020-07-25T11:02:43.000Z</time>
      </trkpt>
      <trkpt lat="48.20523" lon="-3.00043">
        <ele>147.296875</ele>
        <time>2020-07-25T11:02:57.000Z</time>
      </trkpt>
      <trkpt lat="48.20513" lon="-3.00046">
        <ele>147.898438</ele>
        <time>2020-07-25T11:03:00.000Z</time>
      </trkpt>
      <trkpt lat="48.20441" lon="-3.00071">
        <ele>153.097656</ele>
        <time>2020-07-25T11:03:21.000Z</time>
      </trkpt>
      <trkpt lat="48.20432" lon="-3.00076">
        <ele>153.898438</ele>
        <time>2020-07-25T11:03:24.000Z</time>
      </trkpt>
      <trkpt lat="48.20323" lon="-3.00125">
        <ele>158.097656</ele>
        <time>2020-07-25T11:04:05.000Z</time>
      </trkpt>
      <trkpt lat="48.20284" lon="-3.00138">
        <ele>158.898438</ele>
        <time>2020-07-25T11:04:17.000Z</time>
      </trkpt>
      <trkpt lat="48.20263" lon="-3.00143">
        <ele>158.199219</ele>
        <time>2020-07-25T11:04:23.000Z</time>
      </trkpt>
      <trkpt lat="48.20252" lon="-3.00144">
        <ele>156.898438</ele>
        <time>2020-07-25T11:04:26.000Z</time>
      </trkpt>
      <trkpt lat="48.2024" lon="-3.00145">
        <ele>155.097656</ele>
        <time>2020-07-25T11:04:29.000Z</time>
      </trkpt>
      <trkpt lat="48.20217" lon="-3.00144">
        <ele>154</ele>
        <time>2020-07-25T11:04:35.000Z</time>
      </trkpt>
      <trkpt lat="48.20171" lon="-3.00137">
        <ele>154</ele>
        <time>2020-07-25T11:04:47.000Z</time>
      </trkpt>
      <trkpt lat="48.20146" lon="-3.00131">
        <ele>153.398438</ele>
        <time>2020-07-25T11:04:53.000Z</time>
      </trkpt>
      <trkpt lat="48.20134" lon="-3.00126">
        <ele>153.199219</ele>
        <time>2020-07-25T11:04:56.000Z</time>
      </trkpt>
      <trkpt lat="48.20111" lon="-3.00117">
        <ele>152</ele>
        <time>2020-07-25T11:05:02.000Z</time>
      </trkpt>
      <trkpt lat="48.201" lon="-3.0011">
        <ele>150.5</ele>
        <time>2020-07-25T11:05:05.000Z</time>
      </trkpt>
      <trkpt lat="48.20038" lon="-3.00069">
        <ele>142.898438</ele>
        <time>2020-07-25T11:05:20.000Z</time>
      </trkpt>
      <trkpt lat="48.2003" lon="-3.00061">
        <ele>143.796875</ele>
        <time>2020-07-25T11:05:22.000Z</time>
      </trkpt>
      <trkpt lat="48.2001" lon="-3.00039">
        <ele>145.699219</ele>
        <time>2020-07-25T11:05:27.000Z</time>
      </trkpt>
      <trkpt lat="48.19988" lon="-3.00009">
        <ele>148.699219</ele>
        <time>2020-07-25T11:05:33.000Z</time>
      </trkpt>
      <trkpt lat="48.19959" lon="-2.99964">
        <ele>149.5</ele>
        <time>2020-07-25T11:05:41.000Z</time>
      </trkpt>
      <trkpt lat="48.19952" lon="-2.99952">
        <ele>149.699219</ele>
        <time>2020-07-25T11:05:43.000Z</time>
      </trkpt>
      <trkpt lat="48.19933" lon="-2.99915">
        <ele>149.398438</ele>
        <time>2020-07-25T11:05:49.000Z</time>
      </trkpt>
      <trkpt lat="48.19912" lon="-2.99864">
        <ele>147.699219</ele>
        <time>2020-07-25T11:05:57.000Z</time>
      </trkpt>
      <trkpt lat="48.19903" lon="-2.99838">
        <ele>147.5</ele>
        <time>2020-07-25T11:06:01.000Z</time>
      </trkpt>
      <trkpt lat="48.19891" lon="-2.99796">
        <ele>149</ele>
        <time>2020-07-25T11:06:07.000Z</time>
      </trkpt>
      <trkpt lat="48.19849" lon="-2.99637">
        <ele>147.699219</ele>
        <time>2020-07-25T11:06:30.000Z</time>
      </trkpt>
      <trkpt lat="48.19817" lon="-2.99499">
        <ele>147.199219</ele>
        <time>2020-07-25T11:06:50.000Z</time>
      </trkpt>
      <trkpt lat="48.19806" lon="-2.99444">
        <ele>146.398438</ele>
        <time>2020-07-25T11:06:58.000Z</time>
      </trkpt>
      <trkpt lat="48.19803" lon="-2.99429">
        <ele>146.796875</ele>
        <time>2020-07-25T11:07:00.000Z</time>
      </trkpt>
      <trkpt lat="48.19799" lon="-2.99399">
        <ele>146.5</ele>
        <time>2020-07-25T11:07:04.000Z</time>
      </trkpt>
      <trkpt lat="48.19797" lon="-2.9937">
        <ele>145.898438</ele>
        <time>2020-07-25T11:07:08.000Z</time>
      </trkpt>
      <trkpt lat="48.19794" lon="-2.99265">
        <ele>146</ele>
        <time>2020-07-25T11:07:23.000Z</time>
      </trkpt>
      <trkpt lat="48.19792" lon="-2.99249">
        <ele>145</ele>
        <time>2020-07-25T11:07:26.000Z</time>
      </trkpt>
      <trkpt lat="48.19784" lon="-2.99239">
        <ele>144.796875</ele>
        <time>2020-07-25T11:07:30.000Z</time>
      </trkpt>
      <trkpt lat="48.19777" lon="-2.99225">
        <ele>144.796875</ele>
        <time>2020-07-25T11:07:36.000Z</time>
      </trkpt>
      <trkpt lat="48.19776" lon="-2.9921">
        <ele>145</ele>
        <time>2020-07-25T11:07:39.000Z</time>
      </trkpt>
      <trkpt lat="48.19775" lon="-2.99176">
        <ele>144.796875</ele>
        <time>2020-07-25T11:07:45.000Z</time>
      </trkpt>
      <trkpt lat="48.19775" lon="-2.99158">
        <ele>144.5</ele>
        <time>2020-07-25T11:07:48.000Z</time>
      </trkpt>
      <trkpt lat="48.19781" lon="-2.99036">
        <ele>143.296875</ele>
        <time>2020-07-25T11:08:09.000Z</time>
      </trkpt>
      <trkpt lat="48.19783" lon="-2.99004">
        <ele>143.597656</ele>
        <time>2020-07-25T11:08:15.000Z</time>
      </trkpt>
      <trkpt lat="48.19781" lon="-2.98987">
        <ele>143.898438</ele>
        <time>2020-07-25T11:08:19.000Z</time>
      </trkpt>
      <trkpt lat="48.19781" lon="-2.98973">
        <ele>144.296875</ele>
        <time>2020-07-25T11:08:22.000Z</time>
      </trkpt>
      <trkpt lat="48.19784" lon="-2.98957">
        <ele>144.796875</ele>
        <time>2020-07-25T11:08:25.000Z</time>
      </trkpt>
      <trkpt lat="48.1979" lon="-2.98943">
        <ele>145.199219</ele>
        <time>2020-07-25T11:08:28.000Z</time>
      </trkpt>
      <trkpt lat="48.198" lon="-2.98932">
        <ele>145.597656</ele>
        <time>2020-07-25T11:08:31.000Z</time>
      </trkpt>
      <trkpt lat="48.1981" lon="-2.98922">
        <ele>145.898438</ele>
        <time>2020-07-25T11:08:34.000Z</time>
      </trkpt>
      <trkpt lat="48.19822" lon="-2.98918">
        <ele>146.199219</ele>
        <time>2020-07-25T11:08:37.000Z</time>
      </trkpt>
      <trkpt lat="48.19827" lon="-2.9893">
        <ele>146.199219</ele>
        <time>2020-07-25T11:08:40.000Z</time>
      </trkpt>
      <trkpt lat="48.19828" lon="-2.98945">
        <ele>146.097656</ele>
        <time>2020-07-25T11:08:43.000Z</time>
      </trkpt>
      <trkpt lat="48.19827" lon="-2.98961">
        <ele>145.796875</ele>
        <time>2020-07-25T11:08:46.000Z</time>
      </trkpt>
      <trkpt lat="48.19824" lon="-2.98974">
        <ele>146</ele>
        <time>2020-07-25T11:08:49.000Z</time>
      </trkpt>
      <trkpt lat="48.19816" lon="-2.98967">
        <ele>146.398438</ele>
        <time>2020-07-25T11:08:53.000Z</time>
      </trkpt>
      <trkpt lat="48.19813" lon="-2.98939">
        <ele>146.941406</ele>
        <time>2020-07-25T11:09:36.000Z</time>
      </trkpt>
    </trkseg>
  </trk>
</gpx>